
Distance (Route):
Temperature : 0°C
Humidity : 0%
Pressure : 0hPa| Receiver | Date | Latitude | Longitude | Direction | Speed | Altitude | Climb | Temperature | Humidity | Pressure | Voltage | Killtimer | Uptime | BKT | XDATA |
|---|---|---|---|---|---|---|---|---|---|---|---|---|---|---|---|
| RDZBGO | 2026-09-02 13:57:49 | 41.67975 | 9.44646 | 108° | 42km/h | 4324m | -7.7m/s | 0°C | 0% | 0hPa | 0V | 00:00:00 | 00:00:00 | 00:00:00 | |
| RDZBGO | 2026-09-02 13:57:28 | 41.68046 | 9.44354 | 106° | 46km/h | 4499m | -9.0m/s | 0°C | 0% | 0hPa | 0V | 00:00:00 | 00:00:00 | 00:00:00 | |
| RDZBGO | 2026-09-02 13:57:07 | 41.68110 | 9.44044 | 106° | 47km/h | 4695m | -8.4m/s | 0°C | 0% | 0hPa | 0V | 00:00:00 | 00:00:00 | 00:00:00 | |
| RDZBGO | 2026-09-02 13:56:47 | 41.68183 | 9.43747 | 111° | 46km/h | 4861m | -8.4m/s | 0°C | 0% | 0hPa | 0V | 00:00:00 | 00:00:00 | 00:00:00 | |
| RDZBGO | 2026-09-02 13:56:26 | 41.68287 | 9.43456 | 110° | 44km/h | 5035m | -10.1m/s | 0°C | 0% | 0hPa | 0V | 00:00:00 | 00:00:00 | 00:00:00 | |
| RDZBGO | 2026-09-02 13:56:06 | 41.68368 | 9.43164 | 116° | 47km/h | 5193m | -8.2m/s | 0°C | 0% | 0hPa | 0V | 00:00:00 | 00:00:00 | 00:00:00 | |
| RDZBGO | 2026-09-02 13:55:45 | 41.68441 | 9.42847 | 102° | 44km/h | 5400m | -8.3m/s | 0°C | 0% | 0hPa | 0V | 00:00:00 | 00:00:00 | 00:00:00 | |
| RDZBGO | 2026-09-02 13:55:25 | 41.68495 | 9.42535 | 112° | 46km/h | 5605m | -11.2m/s | 0°C | 0% | 0hPa | 0V | 00:00:00 | 00:00:00 | 00:00:00 | |
| RDZBGO | 2026-09-02 13:55:04 | 41.68573 | 9.42208 | 107° | 49km/h | 5820m | -9.9m/s | 0°C | 0% | 0hPa | 0V | 00:00:00 | 00:00:00 | 00:00:00 | |
| RDZBGO | 2026-09-02 13:54:44 | 41.68640 | 9.41886 | 100° | 47km/h | 5985m | -9.7m/s | 0°C | 0% | 0hPa | 0V | 00:00:00 | 00:00:00 | 00:00:00 | |
| RDZBGO | 2026-09-02 13:54:23 | 41.68713 | 9.41523 | 107° | 57km/h | 6222m | -12.8m/s | 0°C | 0% | 0hPa | 0V | 00:00:00 | 00:00:00 | 00:00:00 | |
| RDZBGO | 2026-09-02 13:54:02 | 41.68808 | 9.41138 | 106° | 58km/h | 6474m | -11.4m/s | 0°C | 0% | 0hPa | 0V | 00:00:00 | 00:00:00 | 00:00:00 | |
| RDZBGO | 2026-09-02 13:53:42 | 41.68898 | 9.40758 | 112° | 60km/h | 6693m | -13.7m/s | 0°C | 0% | 0hPa | 0V | 00:00:00 | 00:00:00 | 00:00:00 | |
| RDZBGO | 2026-09-02 13:53:21 | 41.69018 | 9.40381 | 120° | 62km/h | 6936m | -11.6m/s | 0°C | 0% | 0hPa | 0V | 00:00:00 | 00:00:00 | 00:00:00 | |
| RDZBGO | 2026-09-02 13:53:00 | 41.69160 | 9.39973 | 114° | 68km/h | 7159m | -8.3m/s | 0°C | 0% | 0hPa | 0V | 00:00:00 | 00:00:00 | 00:00:00 | |
| RDZBGO | 2026-09-02 13:52:40 | 41.69308 | 9.39564 | 118° | 68km/h | 7379m | -8.1m/s | 0°C | 0% | 0hPa | 0V | 00:00:00 | 00:00:00 | 00:00:00 | |
| RDZBGO | 2026-09-02 13:52:19 | 41.69467 | 9.39126 | 116° | 66km/h | 7597m | -10.8m/s | 0°C | 0% | 0hPa | 0V | 00:00:00 | 00:00:00 | 00:00:00 | |
| RDZ2B | 2026-09-02 13:52:07 | 41.69552 | 9.38878 | 114° | 68km/h | 7736m | -11.0m/s | 0°C | 0% | 0hPa | 0V | 00:00:00 | 00:00:00 | 00:00:00 | |
| RDZBGO | 2026-09-02 13:51:59 | 41.69602 | 9.38714 | 115° | 68km/h | 7821m | -9.8m/s | 0°C | 0% | 0hPa | 0V | 00:00:00 | 00:00:00 | 00:00:00 | |
| RDZ2B | 2026-09-02 13:51:44 | 41.69712 | 9.38410 | 122° | 64km/h | 7978m | -9.7m/s | 0°C | 0% | 0hPa | 0V | 00:00:00 | 00:00:00 | 00:00:00 | |
| RDZBGO | 2026-09-02 13:51:38 | 41.69762 | 9.38290 | 122° | 69km/h | 8038m | -8.4m/s | 0°C | 0% | 0hPa | 0V | 00:00:00 | 00:00:00 | 00:00:00 | |
| RDZ2B | 2026-09-02 13:51:23 | 41.69913 | 9.37990 | 127° | 75km/h | 8176m | -12.0m/s | 0°C | 0% | 0hPa | 0V | 00:00:00 | 00:00:00 | 00:00:00 | |
| RDZBGO | 2026-09-02 13:51:17 | 41.69974 | 9.37868 | 124° | 71km/h | 8227m | -8.0m/s | 0°C | 0% | 0hPa | 0V | 00:00:00 | 00:00:00 | 00:00:00 | |
| RDZ2B | 2026-09-02 13:51:02 | 41.70127 | 9.37559 | 126° | 69km/h | 8329m | -10.4m/s | 0°C | 0% | 0hPa | 0V | 00:00:00 | 00:00:00 | 00:00:00 | |
| RDZBGO | 2026-09-02 13:50:57 | 41.70177 | 9.37458 | 121° | 69km/h | 8384m | -10.4m/s | 0°C | 0% | 0hPa | 0V | 00:00:00 | 00:00:00 | 00:00:00 | |
| RDZ2B | 2026-09-02 13:50:41 | 41.70313 | 9.37149 | 123° | 66km/h | 8561m | -9.6m/s | 0°C | 0% | 0hPa | 0V | 00:00:00 | 00:00:00 | 00:00:00 | |
| RDZBGO | 2026-09-02 13:50:36 | 41.70360 | 9.37055 | 123° | 66km/h | 8615m | -12.6m/s | 0°C | 0% | 0hPa | 0V | 00:00:00 | 00:00:00 | 00:00:00 | |
| RDZBGO | 2026-09-02 13:50:15 | 41.70556 | 9.36648 | 121° | 68km/h | 8829m | -9.6m/s | 0°C | 0% | 0hPa | 0V | 00:00:00 | 00:00:00 | 00:00:00 | |
| RDZ2B | 2026-09-02 13:50:00 | 41.70692 | 9.36348 | 124° | 68km/h | 8979m | -11.0m/s | 0°C | 0% | 0hPa | 0V | 00:00:00 | 00:00:00 | 00:00:00 | |
| RDZBGO | 2026-09-02 13:49:54 | 41.70747 | 9.36226 | 122° | 68km/h | 9043m | -9.8m/s | 0°C | 0% | 0hPa | 0V | 00:00:00 | 00:00:00 | 00:00:00 | |
| RDZ2B | 2026-09-02 13:49:36 | 41.70903 | 9.35867 | 121° | 64km/h | 9227m | -9.3m/s | 0°C | 0% | 0hPa | 0V | 00:00:00 | 00:00:00 | 00:00:00 | |
| RDZBGO | 2026-09-02 13:49:33 | 41.70929 | 9.35808 | 121° | 68km/h | 9253m | -7.4m/s | 0°C | 0% | 0hPa | 0V | 00:00:00 | 00:00:00 | 00:00:00 | |
| RDZBGO | 2026-09-02 13:49:12 | 41.71123 | 9.35370 | 123° | 73km/h | 9471m | -11.2m/s | 0°C | 0% | 0hPa | 0V | 00:00:00 | 00:00:00 | 00:00:00 | |
| RDZBGO | 2026-09-02 13:48:51 | 41.71326 | 9.34914 | 121° | 78km/h | 9689m | -10.0m/s | 0°C | 0% | 0hPa | 0V | 00:00:00 | 00:00:00 | 00:00:00 | |
| RDZ2B | 2026-09-02 13:48:39 | 41.71445 | 9.34653 | 122° | 71km/h | 9805m | -10.0m/s | 0°C | 0% | 0hPa | 0V | 00:00:00 | 00:00:00 | 00:00:00 | |
| RDZBGO | 2026-09-02 13:48:30 | 41.71536 | 9.34464 | 125° | 77km/h | 9906m | -10.6m/s | 0°C | 0% | 0hPa | 0V | 00:00:00 | 00:00:00 | 00:00:00 | |
| RDZ2B | 2026-09-02 13:48:19 | 41.71663 | 9.34236 | 132° | 77km/h | 10028m | -9.8m/s | 0°C | 0% | 0hPa | 0V | 00:00:00 | 00:00:00 | 00:00:00 | |
| RDZBGO | 2026-09-02 13:48:10 | 41.71785 | 9.34059 | 134° | 82km/h | 10109m | -8.2m/s | 0°C | 0% | 0hPa | 0V | 00:00:00 | 00:00:00 | 00:00:00 | |
| RDZ2B | 2026-09-02 13:47:58 | 41.71962 | 9.33821 | 138° | 84km/h | 10235m | -9.3m/s | 0°C | 0% | 0hPa | 0V | 00:00:00 | 00:00:00 | 00:00:00 | |
| RDZBGO | 2026-09-02 13:47:49 | 41.72106 | 9.33667 | 144° | 80km/h | 10338m | -9.5m/s | 0°C | 0% | 0hPa | 0V | 00:00:00 | 00:00:00 | 00:00:00 | |
| RDZBGO | 2026-09-02 13:47:29 | 41.72421 | 9.33338 | 140° | 73km/h | 10541m | -9.6m/s | 0°C | 0% | 0hPa | 0V | 00:00:00 | 00:00:00 | 00:00:00 | |
| RDZ2B | 2026-09-02 13:47:11 | 41.72686 | 9.33070 | 147° | 77km/h | 10713m | -9.6m/s | 0°C | 0% | 0hPa | 0V | 00:00:00 | 00:00:00 | 00:00:00 | |
| RDZBGO | 2026-09-02 13:47:08 | 41.72735 | 9.33028 | 148° | 75km/h | 10737m | -8.1m/s | 0°C | 0% | 0hPa | 0V | 00:00:00 | 00:00:00 | 00:00:00 | |
| RDZBGO | 2026-09-02 13:46:48 | 41.73055 | 9.32772 | 145° | 71km/h | 10935m | -8.4m/s | 0°C | 0% | 0hPa | 0V | 00:00:00 | 00:00:00 | 00:00:00 | |
| RDZBGO | 2026-09-02 13:46:28 | 41.73382 | 9.32562 | 156° | 71km/h | 11122m | -10.5m/s | 0°C | 0% | 0hPa | 0V | 00:00:00 | 00:00:00 | 00:00:00 | |
| RDZBGO | 2026-09-02 13:46:08 | 41.73747 | 9.32392 | 164° | 82km/h | 11314m | -9.9m/s | 0°C | 0% | 0hPa | 0V | 00:00:00 | 00:00:00 | 00:00:00 | |
| RDZBGO | 2026-09-02 13:45:47 | 41.74172 | 9.32256 | 170° | 78km/h | 11526m | -13.2m/s | 0°C | 0% | 0hPa | 0V | 00:00:00 | 00:00:00 | 00:00:00 | |
| RDZ2B | 2026-09-02 13:45:29 | 41.74529 | 9.32166 | 165° | 73km/h | 11736m | -8.6m/s | 0°C | 0% | 0hPa | 0V | 00:00:00 | 00:00:00 | 00:00:00 | |
| RDZBGO | 2026-09-02 13:45:26 | 41.74583 | 9.32147 | 167° | 77km/h | 11766m | -10.4m/s | 0°C | 0% | 0hPa | 0V | 00:00:00 | 00:00:00 | 00:00:00 | |
| RDZ2B | 2026-09-02 13:44:58 | 41.75079 | 9.31921 | 163° | 82km/h | 12059m | -9.7m/s | 0°C | 0% | 0hPa | 0V | 00:00:00 | 00:00:00 | 00:00:00 | |
| RDZBGO | 2026-09-02 13:44:45 | 41.75345 | 9.31806 | 162° | 89km/h | 12192m | -9.7m/s | 0°C | 0% | 0hPa | 0V | 00:00:00 | 00:00:00 | 00:00:00 | |
| RDZBGO | 2026-09-02 13:44:24 | 41.75816 | 9.31636 | 166° | 84km/h | 12399m | -7.3m/s | 0°C | 0% | 0hPa | 0V | 00:00:00 | 00:00:00 | 00:00:00 | |
| RDZ2B | 2026-09-02 13:44:22 | 41.75857 | 9.31621 | 168° | 86km/h | 12416m | -6.5m/s | 0°C | 0% | 0hPa | 0V | 00:00:00 | 00:00:00 | 00:00:00 | |
| RDZBGO | 2026-09-02 13:44:04 | 41.76210 | 9.31483 | 158° | 75km/h | 12595m | -9.7m/s | 0°C | 0% | 0hPa | 0V | 00:00:00 | 00:00:00 | 00:00:00 | |
| RDZBGO | 2026-09-02 13:43:44 | 41.76512 | 9.31232 | 142° | 69km/h | 12790m | -9.5m/s | 0°C | 0% | 0hPa | 0V | 00:00:00 | 00:00:00 | 00:00:00 | |
| RDZ2B | 2026-09-02 13:43:43 | 41.76525 | 9.31218 | 140° | 68km/h | 12799m | -7.8m/s | 0°C | 0% | 0hPa | 0V | 00:00:00 | 00:00:00 | 00:00:00 | |
| RDZBGO | 2026-09-02 13:43:23 | 41.76782 | 9.30853 | 130° | 86km/h | 13004m | -8.4m/s | 0°C | 0% | 0hPa | 0V | 00:00:00 | 00:00:00 | 00:00:00 | |
| RDZ2B | 2026-09-02 13:43:20 | 41.76823 | 9.30785 | 130° | 84km/h | 13031m | -9.9m/s | 0°C | 0% | 0hPa | 0V | 00:00:00 | 00:00:00 | 00:00:00 | |
| RDZBGO | 2026-09-02 13:43:02 | 41.77098 | 9.30440 | 146° | 84km/h | 13226m | -9.7m/s | 0°C | 0% | 0hPa | 0V | 00:00:00 | 00:00:00 | 00:00:00 | |
| RDZ2B | 2026-09-02 13:42:55 | 41.77209 | 9.30324 | 141° | 77km/h | 13305m | -7.4m/s | 0°C | 0% | 0hPa | 0V | 00:00:00 | 00:00:00 | 00:00:00 | |
| RDZBGO | 2026-09-02 13:42:42 | 41.77403 | 9.30088 | 142° | 71km/h | 13447m | -9.6m/s | 0°C | 0% | 0hPa | 0V | 00:00:00 | 00:00:00 | 00:00:00 | |
| RDZ2B | 2026-09-02 13:42:33 | 41.77507 | 9.29958 | 137° | 53km/h | 13542m | -9.7m/s | 0°C | 0% | 0hPa | 0V | 00:00:00 | 00:00:00 | 00:00:00 | |
| RDZBGO | 2026-09-02 13:42:21 | 41.77607 | 9.29799 | 131° | 49km/h | 13677m | -10.3m/s | 0°C | 0% | 0hPa | 0V | 00:00:00 | 00:00:00 | 00:00:00 | |
| RDZBGO | 2026-09-02 13:42:00 | 41.77708 | 9.29555 | 119° | 37km/h | 13919m | -9.3m/s | 0°C | 0% | 0hPa | 0V | 00:00:00 | 00:00:00 | 00:00:00 | |
| RDZBGO | 2026-09-02 13:41:40 | 41.77755 | 9.29287 | 96° | 46km/h | 14129m | -6.7m/s | 0°C | 0% | 0hPa | 0V | 00:00:00 | 00:00:00 | 00:00:00 | |
| RDZ2B | 2026-09-02 13:41:38 | 41.77756 | 9.29256 | 96° | 44km/h | 14148m | -10.1m/s | 0°C | 0% | 0hPa | 0V | 00:00:00 | 00:00:00 | 00:00:00 | |
| RDZBGO | 2026-09-02 13:41:20 | 41.77745 | 9.28935 | 86° | 57km/h | 14340m | -9.9m/s | 0°C | 0% | 0hPa | 0V | 00:00:00 | 00:00:00 | 00:00:00 | |
| RDZ2B | 2026-09-02 13:41:17 | 41.77740 | 9.28876 | 76° | 58km/h | 14374m | -13.2m/s | 0°C | 0% | 0hPa | 0V | 00:00:00 | 00:00:00 | 00:00:00 | |
| RDZBGO | 2026-09-02 13:41:00 | 41.77705 | 9.28497 | 87° | 68km/h | 14564m | -9.8m/s | 0°C | 0% | 0hPa | 0V | 00:00:00 | 00:00:00 | 00:00:00 | |
| RDZBGO | 2026-09-02 13:40:39 | 41.77729 | 9.27994 | 107° | 73km/h | 14786m | -9.1m/s | 0°C | 0% | 0hPa | 0V | 00:00:00 | 00:00:00 | 00:00:00 | |
| RDZ2B | 2026-09-02 13:40:24 | 41.77792 | 9.27639 | 104° | 68km/h | 14947m | -10.9m/s | 0°C | 0% | 0hPa | 0V | 00:00:00 | 00:00:00 | 00:00:00 | |
| RDZBGO | 2026-09-02 13:40:18 | 41.77819 | 9.27513 | 109° | 64km/h | 15019m | -11.0m/s | 0°C | 0% | 0hPa | 0V | 00:00:00 | 00:00:00 | 00:00:00 | |
| RDZ2B | 2026-09-02 13:39:58 | 41.77884 | 9.27090 | 90° | 66km/h | 15239m | -10.6m/s | 0°C | 0% | 0hPa | 0V | 00:00:00 | 00:00:00 | 00:00:00 | |
| RDZBGO | 2026-09-02 13:39:37 | 41.77908 | 9.26579 | 98° | 71km/h | 15471m | -10.5m/s | 0°C | 0% | 0hPa | 0V | 00:00:00 | 00:00:00 | 00:00:00 | |
| RDZ2B | 2026-09-02 13:39:20 | 41.77967 | 9.26146 | 108° | 78km/h | 15651m | -8.8m/s | 0°C | 0% | 0hPa | 0V | 00:00:00 | 00:00:00 | 00:00:00 | |
| RDZBGO | 2026-09-02 13:39:16 | 41.77985 | 9.26046 | 105° | 75km/h | 15688m | -9.7m/s | 0°C | 0% | 0hPa | 0V | 00:00:00 | 00:00:00 | 00:00:00 | |
| RDZ2B | 2026-09-02 13:38:57 | 41.78110 | 9.25584 | 116° | 77km/h | 15840m | -7.1m/s | 0°C | 0% | 0hPa | 0V | 00:00:00 | 00:00:00 | 00:00:00 | |
| RDZBGO | 2026-09-02 13:38:55 | 41.78127 | 9.25536 | 113° | 77km/h | 15864m | -13.2m/s | 0°C | 0% | 0hPa | 0V | 00:00:00 | 00:00:00 | 00:00:00 | |
| RDZBGO | 2026-09-02 13:38:31 | 41.78226 | 9.25006 | 99° | 77km/h | 16181m | -14.3m/s | 0°C | 0% | 0hPa | 0V | 00:00:00 | 00:00:00 | 00:00:00 | |
| RDZ2B | 2026-09-02 13:38:23 | 41.78248 | 9.24813 | 103° | 69km/h | 16297m | -10.8m/s | 0°C | 0% | 0hPa | 0V | 00:00:00 | 00:00:00 | 00:00:00 | |
| RDZBGO | 2026-09-02 13:38:09 | 41.78331 | 9.24501 | 115° | 64km/h | 16470m | -14.2m/s | 0°C | 0% | 0hPa | 0V | 00:00:00 | 00:00:00 | 00:00:00 | |
| RDZ2B | 2026-09-02 13:38:01 | 41.78379 | 9.24353 | 112° | 57km/h | 16592m | -13.2m/s | 0°C | 0% | 0hPa | 0V | 00:00:00 | 00:00:00 | 00:00:00 | |
| RDZBGO | 2026-09-02 13:37:49 | 41.78435 | 9.24127 | 111° | 58km/h | 16752m | -9.9m/s | 0°C | 0% | 0hPa | 0V | 00:00:00 | 00:00:00 | 00:00:00 | |
| RDZ2B | 2026-09-02 13:37:36 | 41.78492 | 9.23896 | 109° | 53km/h | 16901m | -12.6m/s | 0°C | 0% | 0hPa | 0V | 00:00:00 | 00:00:00 | 00:00:00 | |
| RDZ2B | 2026-09-02 13:37:15 | 41.78572 | 9.23544 | 115° | 47km/h | 17162m | -11.0m/s | 0°C | 0% | 0hPa | 0V | 00:00:00 | 00:00:00 | 00:00:00 | |
| RDZBGO | 2026-09-02 13:37:07 | 41.78606 | 9.23424 | 106° | 40km/h | 17259m | -11.4m/s | 0°C | 0% | 0hPa | 0V | 00:00:00 | 00:00:00 | 00:00:00 | |
| RDZ2B | 2026-09-02 13:36:54 | 41.78636 | 9.23273 | 106° | 33km/h | 17404m | -9.6m/s | 0°C | 0% | 0hPa | 0V | 00:00:00 | 00:00:00 | 00:00:00 | |
| RDZBGO | 2026-09-02 13:36:47 | 41.78643 | 9.23208 | 107° | 22km/h | 17485m | -11.4m/s | 0°C | 0% | 0hPa | 0V | 00:00:00 | 00:00:00 | 00:00:00 | |
| RDZ2B | 2026-09-02 13:36:31 | 41.78642 | 9.23112 | 72° | 15km/h | 17662m | -10.6m/s | 0°C | 0% | 0hPa | 0V | 00:00:00 | 00:00:00 | 00:00:00 | |
| RDZBGO | 2026-09-02 13:36:26 | 41.78636 | 9.23090 | 52° | 13km/h | 17720m | -10.7m/s | 0°C | 0% | 0hPa | 0V | 00:00:00 | 00:00:00 | 00:00:00 | |
| RDZ2B | 2026-09-02 13:36:11 | 41.78611 | 9.23060 | 42° | 11km/h | 17914m | -12.6m/s | 0°C | 0% | 0hPa | 0V | 00:00:00 | 00:00:00 | 00:00:00 | |
| RDZBGO | 2026-09-02 13:36:05 | 41.78595 | 9.23042 | 74° | 11km/h | 17994m | -12.0m/s | 0°C | 0% | 0hPa | 0V | 00:00:00 | 00:00:00 | 00:00:00 | |
| RDZBGO | 2026-09-02 13:35:44 | 41.78562 | 9.22892 | 66° | 33km/h | 18262m | -13.4m/s | 0°C | 0% | 0hPa | 0V | 00:00:00 | 00:00:00 | 00:00:00 | |
| RDZ2B | 2026-09-02 13:35:43 | 41.78559 | 9.22882 | 75° | 33km/h | 18278m | -15.8m/s | 0°C | 0% | 0hPa | 0V | 00:00:00 | 00:00:00 | 00:00:00 | |
| RDZBGO | 2026-09-02 13:35:24 | 41.78587 | 9.22624 | 114° | 51km/h | 18556m | -14.5m/s | 0°C | 0% | 0hPa | 0V | 00:00:00 | 00:00:00 | 00:00:00 | |
| RDZ2B | 2026-09-02 13:35:19 | 41.78606 | 9.22550 | 109° | 51km/h | 18617m | -9.8m/s | 0°C | 0% | 0hPa | 0V | 00:00:00 | 00:00:00 | 00:00:00 | |
| RDZBGO | 2026-09-02 13:35:03 | 41.78702 | 9.22337 | 130° | 35km/h | 18833m | -15.2m/s | 0°C | 0% | 0hPa | 0V | 00:00:00 | 00:00:00 | 00:00:00 | |
| RDZ2B | 2026-09-02 13:34:59 | 41.78725 | 9.22306 | 152° | 31km/h | 18887m | -12.8m/s | 0°C | 0% | 0hPa | 0V | 00:00:00 | 00:00:00 | 00:00:00 | |
| RDZBGO | 2026-09-02 13:34:43 | 41.78757 | 9.22254 | 68° | 9km/h | 19093m | -10.2m/s | 0°C | 0% | 0hPa | 0V | 00:00:00 | 00:00:00 | 00:00:00 | |
| RDZ2B | 2026-09-02 13:34:30 | 41.78736 | 9.22185 | 79° | 22km/h | 19271m | -14.9m/s | 0°C | 0% | 0hPa | 0V | 00:00:00 | 00:00:00 | 00:00:00 | |
| RDZBGO | 2026-09-02 13:34:22 | 41.78745 | 9.22129 | 107° | 24km/h | 19384m | -14.5m/s | 0°C | 0% | 0hPa | 0V | 00:00:00 | 00:00:00 | 00:00:00 | |
| RDZ2B | 2026-09-02 13:34:08 | 41.78788 | 9.22032 | 141° | 16km/h | 19566m | -10.8m/s | 0°C | 0% | 0hPa | 0V | 00:00:00 | 00:00:00 | 00:00:00 | |
| RDZBGO | 2026-09-02 13:34:00 | 41.78797 | 9.22003 | 85° | 9km/h | 19680m | -12.5m/s | 0°C | 0% | 0hPa | 0V | 00:00:00 | 00:00:00 | 00:00:00 | |
| RDZBGO | 2026-09-02 13:33:40 | 41.78825 | 9.21980 | 218° | 5km/h | 19966m | -13.4m/s | 0°C | 0% | 0hPa | 0V | 00:00:00 | 00:00:00 | 00:00:00 | |
| RDZ2B | 2026-09-02 13:33:39 | 41.78827 | 9.21981 | 211° | 9km/h | 19980m | -13.4m/s | 0°C | 0% | 0hPa | 0V | 00:00:00 | 00:00:00 | 00:00:00 | |
| RDZBGO | 2026-09-02 13:33:17 | 41.78844 | 9.21941 | 246° | 4km/h | 20328m | -16.8m/s | 0°C | 0% | 0hPa | 0V | 00:00:00 | 00:00:00 | 00:00:00 | |
| RDZ2B | 2026-09-02 13:33:08 | 41.78846 | 9.21946 | 237° | 11km/h | 20460m | -17.6m/s | 0°C | 0% | 0hPa | 0V | 00:00:00 | 00:00:00 | 00:00:00 | |
| RDZBGO | 2026-09-02 13:32:56 | 41.78834 | 9.21978 | 285° | 9km/h | 20651m | -13.7m/s | 0°C | 0% | 0hPa | 0V | 00:00:00 | 00:00:00 | 00:00:00 | |
| RDZ2B | 2026-09-02 13:32:37 | 41.78800 | 9.22062 | 1° | 15km/h | 20958m | -15.4m/s | 0°C | 0% | 0hPa | 0V | 00:00:00 | 00:00:00 | 00:00:00 | |
| RDZBGO | 2026-09-02 13:32:32 | 41.78785 | 9.22059 | 32° | 9km/h | 21037m | -19.0m/s | 0°C | 0% | 0hPa | 0V | 00:00:00 | 00:00:00 | 00:00:00 | |
| RDZ2B | 2026-09-02 13:32:13 | 41.78787 | 9.21995 | 86° | 16km/h | 21348m | -16.4m/s | 0°C | 0% | 0hPa | 0V | 00:00:00 | 00:00:00 | 00:00:00 | |
| RDZBGO | 2026-09-02 13:32:12 | 41.78786 | 9.21990 | 89° | 16km/h | 21366m | -16.8m/s | 0°C | 0% | 0hPa | 0V | 00:00:00 | 00:00:00 | 00:00:00 | |
| RDZ2B | 2026-09-02 13:31:51 | 41.78854 | 9.21992 | 227° | 26km/h | 21724m | -15.2m/s | 0°C | 0% | 0hPa | 0V | 00:00:00 | 00:00:00 | 00:00:00 | |
| RDZ2B | 2026-09-02 13:31:31 | 41.78882 | 9.22165 | 284° | 20km/h | 22054m | -19.4m/s | 0°C | 0% | 0hPa | 0V | 00:00:00 | 00:00:00 | 00:00:00 | |
| RDZBGO | 2026-09-02 13:31:09 | 41.78765 | 9.22264 | 338° | 26km/h | 22457m | -21.0m/s | 0°C | 0% | 0hPa | 0V | 00:00:00 | 00:00:00 | 00:00:00 | |
| RDZ2B | 2026-09-02 13:31:07 | 41.78754 | 9.22270 | 343° | 18km/h | 22499m | -21.1m/s | 0°C | 0% | 0hPa | 0V | 00:00:00 | 00:00:00 | 00:00:00 | |
| RDZBGO | 2026-09-02 13:30:47 | 41.78695 | 9.22247 | 48° | 4km/h | 22873m | -19.0m/s | 0°C | 0% | 0hPa | 0V | 00:00:00 | 00:00:00 | 00:00:00 | |
| RDZ2B | 2026-09-02 13:30:38 | 41.78679 | 9.22233 | 49° | 9km/h | 23046m | -16.0m/s | 0°C | 0% | 0hPa | 0V | 00:00:00 | 00:00:00 | 00:00:00 | |
| RDZBGO | 2026-09-02 13:30:27 | 41.78655 | 9.22211 | 13° | 20km/h | 23237m | -20.5m/s | 0°C | 0% | 0hPa | 0V | 00:00:00 | 00:00:00 | 00:00:00 | |
| RDZ2B | 2026-09-02 13:30:17 | 41.78614 | 9.22179 | 33° | 13km/h | 23422m | -20.4m/s | 0°C | 0% | 0hPa | 0V | 00:00:00 | 00:00:00 | 00:00:00 | |
| RDZBGO | 2026-09-02 13:30:06 | 41.78602 | 9.22175 | 269° | 4km/h | 23644m | -21.1m/s | 0°C | 0% | 0hPa | 0V | 00:00:00 | 00:00:00 | 00:00:00 | |
| RDZ2B | 2026-09-02 13:29:57 | 41.78591 | 9.22184 | 343° | 5km/h | 23764m | -10.9m/s | 0°C | 0% | 0hPa | 0V | 00:00:00 | 00:00:00 | 00:00:00 | |
| RDZBGO | 2026-09-02 13:29:45 | 41.78560 | 9.22198 | 341° | 11km/h | 23886m | -10.1m/s | 0°C | 0% | 0hPa | 0V | 00:00:00 | 00:00:00 | 00:00:00 | |
| RDZ2B | 2026-09-02 13:29:35 | 41.78538 | 9.22210 | 343° | 5km/h | 23985m | -9.8m/s | 0°C | 0% | 0hPa | 0V | 00:00:00 | 00:00:00 | 00:00:00 | |
| RDZBGO | 2026-09-02 13:29:25 | 41.78521 | 9.22213 | 17° | 7km/h | 24090m | -10.1m/s | 0°C | 0% | 0hPa | 0V | 00:00:00 | 00:00:00 | 00:00:00 | |
| RDZ2B | 2026-09-02 13:29:14 | 41.78503 | 9.22199 | 44° | 13km/h | 24188m | -9.4m/s | 0°C | 0% | 0hPa | 0V | 00:00:00 | 00:00:00 | 00:00:00 | |
| RDZBGO | 2026-09-02 13:29:04 | 41.78495 | 9.22179 | 123° | 2km/h | 24286m | -10.0m/s | 0°C | 0% | 0hPa | 0V | 00:00:00 | 00:00:00 | 00:00:00 | |
| RDZ2B | 2026-09-02 13:28:53 | 41.78488 | 9.22196 | 300° | 13km/h | 24395m | -13.1m/s | 0°C | 0% | 0hPa | 0V | 00:00:00 | 00:00:00 | 00:00:00 | |
| RDZBGO | 2026-09-02 13:28:44 | 41.78460 | 9.22231 | 346° | 18km/h | 24513m | -17.0m/s | 0°C | 0% | 0hPa | 0V | 00:00:00 | 00:00:00 | 00:00:00 | |
| RDZ2B | 2026-09-02 13:28:30 | 41.78406 | 9.22232 | 311° | 16km/h | 24792m | -15.6m/s | 0°C | 0% | 0hPa | 0V | 00:00:00 | 00:00:00 | 00:00:00 | |
| RDZBGO | 2026-09-02 13:28:23 | 41.78389 | 9.22231 | 355° | 15km/h | 24946m | -23.8m/s | 0°C | 0% | 0hPa | 0V | 00:00:00 | 00:00:00 | 00:00:00 | |
| RDZBGO | 2026-09-02 13:28:02 | 41.78384 | 9.22180 | 191° | 15km/h | 25356m | -11.0m/s | 0°C | 0% | 0hPa | 0V | 00:00:00 | 00:00:00 | 00:00:00 | |
| RDZ2B | 2026-09-02 13:28:00 | 41.78391 | 9.22184 | 208° | 15km/h | 25377m | -10.6m/s | 0°C | 0% | 0hPa | 0V | 00:00:00 | 00:00:00 | 00:00:00 | |
| RDZBGO | 2026-09-02 13:27:41 | 41.78412 | 9.22247 | 308° | 15km/h | 25579m | -10.1m/s | 0°C | 0% | 0hPa | 0V | 00:00:00 | 00:00:00 | 00:00:00 | |
| RDZ2B | 2026-09-02 13:27:39 | 41.78409 | 9.22253 | 295° | 9km/h | 25601m | -9.7m/s | 0°C | 0% | 0hPa | 0V | 00:00:00 | 00:00:00 | 00:00:00 | |
| RDZBGO | 2026-09-02 13:27:21 | 41.78373 | 9.22295 | 23° | 4km/h | 25786m | -11.4m/s | 0°C | 0% | 0hPa | 0V | 00:00:00 | 00:00:00 | 00:00:00 | |
| RDZ2B | 2026-09-02 13:27:16 | 41.78368 | 9.22292 | 100° | 2km/h | 25844m | -10.7m/s | 0°C | 0% | 0hPa | 0V | 00:00:00 | 00:00:00 | 00:00:00 | |
| RDZBGO | 2026-09-02 13:27:00 | 41.78355 | 9.22257 | 29° | 5km/h | 26028m | -11.1m/s | 0°C | 0% | 0hPa | 0V | 00:00:00 | 00:00:00 | 00:00:00 | |
| RDZ2B | 2026-09-02 13:26:54 | 41.78351 | 9.22248 | 111° | 13km/h | 26087m | -9.0m/s | 0°C | 0% | 0hPa | 0V | 00:00:00 | 00:00:00 | 00:00:00 | |
| RDZBGO | 2026-09-02 13:26:40 | 41.78346 | 9.22219 | 89° | 11km/h | 26381m | -21.5m/s | 0°C | 0% | 0hPa | 0V | 00:00:00 | 00:00:00 | 00:00:00 | |
| RDZ2B | 2026-09-02 13:26:32 | 41.78351 | 9.22197 | 96° | 5km/h | 26542m | -20.6m/s | 0°C | 0% | 0hPa | 0V | 00:00:00 | 00:00:00 | 00:00:00 | |
| RDZBGO | 2026-09-02 13:26:19 | 41.78340 | 9.22196 | 338° | 2km/h | 26825m | -22.4m/s | 0°C | 0% | 0hPa | 0V | 00:00:00 | 00:00:00 | 00:00:00 | |
| RDZ2B | 2026-09-02 13:26:03 | 41.78382 | 9.22241 | 247° | 9km/h | 27177m | -18.6m/s | 0°C | 0% | 0hPa | 0V | 00:00:00 | 00:00:00 | 00:00:00 | |
| RDZBGO | 2026-09-02 13:25:58 | 41.78386 | 9.22259 | 244° | 16km/h | 27281m | -24.6m/s | 0°C | 0% | 0hPa | 0V | 00:00:00 | 00:00:00 | 00:00:00 | |
| RDZ2B | 2026-09-02 13:25:43 | 41.78392 | 9.22353 | 310° | 20km/h | 27638m | -25.3m/s | 0°C | 0% | 0hPa | 0V | 00:00:00 | 00:00:00 | 00:00:00 | |
| RDZBGO | 2026-09-02 13:25:37 | 41.78364 | 9.22373 | 351° | 18km/h | 27768m | -19.8m/s | 0°C | 0% | 0hPa | 0V | 00:00:00 | 00:00:00 | 00:00:00 | |
| RDZ2B | 2026-09-02 13:25:22 | 41.78311 | 9.22365 | 12° | 7km/h | 27983m | -12.9m/s | 0°C | 0% | 0hPa | 0V | 00:00:00 | 00:00:00 | 00:00:00 | |
| RDZBGO | 2026-09-02 13:25:16 | 41.78296 | 9.22360 | 5° | 7km/h | 28059m | -11.8m/s | 0°C | 0% | 0hPa | 0V | 00:00:00 | 00:00:00 | 00:00:00 | |
| RDZ2B | 2026-09-02 13:25:02 | 41.78282 | 9.22353 | 324° | 9km/h | 28233m | -13.3m/s | 0°C | 0% | 0hPa | 0V | 00:00:00 | 00:00:00 | 00:00:00 | |
| RDZBGO | 2026-09-02 13:24:56 | 41.78278 | 9.22362 | 244° | 9km/h | 28310m | -11.5m/s | 0°C | 0% | 0hPa | 0V | 00:00:00 | 00:00:00 | 00:00:00 | |
| RDZBGO | 2026-09-02 13:24:23 | 41.78233 | 9.22526 | 296° | 13km/h | 29263m | -37.5m/s | 0°C | 0% | 0hPa | 0V | 00:00:00 | 00:00:00 | 00:00:00 | |
| RDZ2B | 2026-09-02 13:24:22 | 41.78232 | 9.22529 | 278° | 5km/h | 29300m | -36.6m/s | 0°C | 0% | 0hPa | 0V | 00:00:00 | 00:00:00 | 00:00:00 | |
| RDZBGO | 2026-09-02 13:23:56 | 41.78252 | 9.22623 | 278° | 20km/h | 29996m | -13.7m/s | 0°C | 0% | 0hPa | 0V | 00:00:00 | 00:00:00 | 00:00:00 | |
| RDZ2B | 2026-09-02 13:23:55 | 41.78251 | 9.22630 | 281° | 22km/h | 30010m | -14.1m/s | 0°C | 0% | 0hPa | 0V | 00:00:00 | 00:00:00 | 00:00:00 | |
| IW2NTF | 2026-09-02 13:23:52 | 41.78238 | 9.22686 | 273° | 9km/h | 30148m | -11.2m/s | 0°C | 0% | 0hPa | 0V | 00:00:00 | 00:00:00 | 00:00:00 | |
| RDZBGO | 2026-09-02 13:23:36 | 41.78236 | 9.22697 | 247° | 5km/h | 30258m | -11.0m/s | 0°C | 0% | 0hPa | 0V | 00:00:00 | 00:00:00 | 00:00:00 | |
| RDZ2B | 2026-09-02 13:23:35 | 41.78236 | 9.22699 | 272° | 5km/h | 30270m | -12.8m/s | 0°C | 0% | 0hPa | 0V | 00:00:00 | 00:00:00 | 00:00:00 | |
| IW2NTF | 2026-09-02 13:23:28 | 41.78260 | 9.22725 | 218° | 13km/h | 30415m | -10.1m/s | 0°C | 0% | 0hPa | 0V | 00:00:00 | 00:00:00 | 00:00:00 | |
| RDZBGO | 2026-09-02 13:23:16 | 41.78270 | 9.22757 | 277° | 18km/h | 30490m | -11.5m/s | 0°C | 0% | 0hPa | 0V | 00:00:00 | 00:00:00 | 00:00:00 | |
| RDZ2B | 2026-09-02 13:23:12 | 41.78274 | 9.22780 | 256° | 18km/h | 30534m | -11.2m/s | 0°C | 0% | 0hPa | 0V | 00:00:00 | 00:00:00 | 00:00:00 | |
| IW2NTF | 2026-09-02 13:23:03 | 41.78299 | 9.22866 | 241° | 22km/h | 30699m | -11.7m/s | 0°C | 0% | 0hPa | 0V | 00:00:00 | 00:00:00 | 00:00:00 | |
| RDZBGO | 2026-09-02 13:22:55 | 41.78303 | 9.22880 | 254° | 22km/h | 30721m | -11.0m/s | 0°C | 0% | 0hPa | 0V | 00:00:00 | 00:00:00 | 00:00:00 | |
| RDZ2B | 2026-09-02 13:22:50 | 41.78318 | 9.22912 | 230° | 24km/h | 30777m | -11.9m/s | 0°C | 0% | 0hPa | 0V | 00:00:00 | 00:00:00 | 00:00:00 | |
| IW2NTF | 2026-09-02 13:22:43 | 41.78365 | 9.22977 | 215° | 22km/h | 30911m | -12.6m/s | 0°C | 0% | 0hPa | 0V | 00:00:00 | 00:00:00 | 00:00:00 | |
| RDZBGO | 2026-09-02 13:22:34 | 41.78389 | 9.22997 | 213° | 31km/h | 30956m | -10.1m/s | 0°C | 0% | 0hPa | 0V | 00:00:00 | 00:00:00 | 00:00:00 | |
| RDZ2B | 2026-09-02 13:22:27 | 41.78423 | 9.23036 | 229° | 20km/h | 31033m | -11.2m/s | 0°C | 0% | 0hPa | 0V | 00:00:00 | 00:00:00 | 00:00:00 | |
| RDZBGO | 2026-09-02 13:22:13 | 41.78456 | 9.23125 | 264° | 22km/h | 31187m | -10.4m/s | 0°C | 0% | 0hPa | 0V | 00:00:00 | 00:00:00 | 00:00:00 | |
| RDZ2B | 2026-09-02 13:22:01 | 41.78483 | 9.23195 | 225° | 22km/h | 31322m | -11.5m/s | 0°C | 0% | 0hPa | 0V | 00:00:00 | 00:00:00 | 00:00:00 | |
| RDZBGO | 2026-09-02 13:21:52 | 41.78528 | 9.23255 | 223° | 31km/h | 31418m | -10.4m/s | 0°C | 0% | 0hPa | 0V | 00:00:00 | 00:00:00 | 00:00:00 | |
| IW2NTF | 2026-09-02 13:21:48 | 41.78592 | 9.23328 | 222° | 35km/h | 31528m | -10.9m/s | 0°C | 0% | 0hPa | 0V | 00:00:00 | 00:00:00 | 00:00:00 | |
| RDZ2B | 2026-09-02 13:21:38 | 41.78614 | 9.23360 | 235° | 31km/h | 31573m | -10.2m/s | 0°C | 0% | 0hPa | 0V | 00:00:00 | 00:00:00 | 00:00:00 | |
| RDZBGO | 2026-09-02 13:21:32 | 41.78647 | 9.23406 | 226° | 35km/h | 31639m | -10.3m/s | 0°C | 0% | 0hPa | 0V | 00:00:00 | 00:00:00 | 00:00:00 | |
| RDZBGO | 2026-09-02 13:21:09 | 41.78717 | 9.23546 | 238° | 11km/h | 31889m | -11.6m/s | 0°C | 0% | 0hPa | 0V | 00:00:00 | 00:00:00 | 00:00:00 | |
| RDZ2B | 2026-09-02 13:20:52 | 41.78775 | 9.23615 | 202° | 26km/h | 32074m | -10.2m/s | 0°C | 0% | 0hPa | 0V | 00:00:00 | 00:00:00 | 00:00:00 | |
| IW2NTF | 2026-09-02 13:20:49 | 41.78806 | 9.23634 | 218° | 27km/h | 32128m | -10.7m/s | 0°C | 0% | 0hPa | 0V | 00:00:00 | 00:00:00 | 00:00:00 | |
| RDZBGO | 2026-09-02 13:20:48 | 41.78800 | 9.23628 | 213° | 27km/h | 32118m | -10.2m/s | 0°C | 0% | 0hPa | 0V | 00:00:00 | 00:00:00 | 00:00:00 | |
| RDZ2B | 2026-09-02 13:20:27 | 41.78933 | 9.23771 | 239° | 37km/h | 32344m | -11.1m/s | 0°C | 0% | 0hPa | 0V | 00:00:00 | 00:00:00 | 00:00:00 | |
| RDZ2B | 2026-09-02 13:20:06 | 41.78984 | 9.24034 | 258° | 35km/h | 32570m | -10.3m/s | 0°C | 0% | 0hPa | 0V | 00:00:00 | 00:00:00 | 00:00:00 | |
| IW2NTF | 2026-09-02 13:19:55 | 41.78987 | 9.24144 | 284° | 29km/h | 32707m | -10.1m/s | 0°C | 0% | 0hPa | 0V | 00:00:00 | 00:00:00 | 00:00:00 | |
| RDZ2B | 2026-09-02 13:19:44 | 41.78978 | 9.24232 | 288° | 37km/h | 32804m | -11.4m/s | 0°C | 0% | 0hPa | 0V | 00:00:00 | 00:00:00 | 00:00:00 | |
| RDZBGO | 2026-09-02 13:19:23 | 41.78941 | 9.24479 | 267° | 29km/h | 33040m | -10.8m/s | 0°C | 0% | 0hPa | 0V | 00:00:00 | 00:00:00 | 00:00:00 | |
| RDZ2B | 2026-09-02 13:19:20 | 41.78942 | 9.24511 | 276° | 38km/h | 33074m | -10.3m/s | 0°C | 0% | 0hPa | 0V | 00:00:00 | 00:00:00 | 00:00:00 | |
| RDZBGO | 2026-09-02 13:19:02 | 41.78905 | 9.24702 | 302° | 40km/h | 33283m | -10.8m/s | 0°C | 0% | 0hPa | 0V | 00:00:00 | 00:00:00 | 00:00:00 | |
| RDZ2B | 2026-09-02 13:19:00 | 41.78895 | 9.24729 | 298° | 47km/h | 33306m | -11.3m/s | 0°C | 0% | 0hPa | 0V | 00:00:00 | 00:00:00 | 00:00:00 | |
| RDZBGO | 2026-09-02 13:18:42 | 41.78813 | 9.24920 | 273° | 40km/h | 33517m | -10.9m/s | 0°C | 0% | 0hPa | 0V | 00:00:00 | 00:00:00 | 00:00:00 | |
| RDZ2B | 2026-09-02 13:18:39 | 41.78810 | 9.24960 | 284° | 37km/h | 33549m | -12.0m/s | 0°C | 0% | 0hPa | 0V | 00:00:00 | 00:00:00 | 00:00:00 | |
| RDZBGO | 2026-09-02 13:18:21 | 41.78765 | 9.25118 | 299° | 22km/h | 33775m | -13.7m/s | 0°C | 0% | 0hPa | 0V | 00:00:00 | 00:00:00 | 00:00:00 | |
| RDZ2B | 2026-09-02 13:18:18 | 41.78761 | 9.25136 | 257° | 20km/h | 33811m | -11.8m/s | 0°C | 0% | 0hPa | 0V | 00:00:00 | 00:00:00 | 00:00:00 | |
| IW2NTF | 2026-09-02 13:18:11 | 41.78753 | 9.25243 | 278° | 33km/h | 33959m | -12m/s | 0°C | 0% | 0hPa | 0V | 00:00:00 | 00:00:00 | 00:00:00 | |
| RDZBGO | 2026-09-02 13:18:01 | 41.78747 | 9.25288 | 263° | 33km/h | 34023m | -14.8m/s | 0°C | 0% | 0hPa | 0V | 00:00:00 | 00:00:00 | 00:00:00 | |
| RDZ2B | 2026-09-02 13:17:58 | 41.78749 | 9.25328 | 270° | 40km/h | 34063m | -13.6m/s | 0°C | 0% | 0hPa | 0V | 00:00:00 | 00:00:00 | 00:00:00 | |
| IW2NTF | 2026-09-02 13:17:57 | 41.78746 | 9.25360 | 285° | 27km/h | 34102m | -12.7m/s | 0°C | 0% | 0hPa | 0V | 00:00:00 | 00:00:00 | 00:00:00 | |
| IW2NTF | 2026-09-02 13:17:46 | 41.78700 | 9.25511 | 290° | 38km/h | 34290m | -13.6m/s | 0°C | 0% | 0hPa | 0V | 00:00:00 | 00:00:00 | 00:00:00 | |
| RDZBGO | 2026-09-02 13:17:40 | 41.78697 | 9.25524 | 286° | 38km/h | 34304m | -13.9m/s | 0°C | 0% | 0hPa | 0V | 00:00:00 | 00:00:00 | 00:00:00 | |
| RDZ2B | 2026-09-02 13:17:37 | 41.78686 | 9.25558 | 299° | 37km/h | 34343m | -12.7m/s | 0°C | 0% | 0hPa | 0V | 00:00:00 | 00:00:00 | 00:00:00 | |
| RDZBGO | 2026-09-02 13:17:19 | 41.78575 | 9.25812 | 310° | 46km/h | 34582m | -14.3m/s | 0°C | 0% | 0hPa | 0V | 00:00:00 | 00:00:00 | 00:00:00 | |
| RDZ2B | 2026-09-02 13:17:16 | 41.78552 | 9.25847 | 310° | 49km/h | 34623m | -15.5m/s | 0°C | 0% | 0hPa | 0V | 00:00:00 | 00:00:00 | 00:00:00 | |
| RDZBGO | 2026-09-02 13:16:58 | 41.78469 | 9.26054 | 306° | 38km/h | 34869m | -13.6m/s | 0°C | 0% | 0hPa | 0V | 00:00:00 | 00:00:00 | 00:00:00 | |
| RDZ2B | 2026-09-02 13:16:56 | 41.78462 | 9.26077 | 284° | 35km/h | 34895m | -14.8m/s | 0°C | 0% | 0hPa | 0V | 00:00:00 | 00:00:00 | 00:00:00 | |
| RDZBGO | 2026-09-02 13:16:38 | 41.78353 | 9.26293 | 309° | 42km/h | 35147m | -13.5m/s | 0°C | 0% | 0hPa | 0V | 00:00:00 | 00:00:00 | 00:00:00 | |
| RDZ2B | 2026-09-02 13:16:35 | 41.78334 | 9.26325 | 316° | 40km/h | 35188m | -14.6m/s | 0°C | 0% | 0hPa | 0V | 00:00:00 | 00:00:00 | 00:00:00 | |
| RDZBGO | 2026-09-02 13:16:17 | 41.78276 | 9.26484 | 294° | 40km/h | 35443m | -13.8m/s | 0°C | 0% | 0hPa | 0V | 00:00:00 | 00:00:00 | 00:00:00 | |
| RDZ2B | 2026-09-02 13:16:15 | 41.78262 | 9.26514 | 310° | 58km/h | 35471m | -15.8m/s | 0°C | 0% | 0hPa | 0V | 00:00:00 | 00:00:00 | 00:00:00 | |
| RDZBGO | 2026-09-02 13:15:56 | 41.78157 | 9.26747 | 331° | 47km/h | 35851m | -33.9m/s | 0°C | 0% | 0hPa | 0V | 00:00:00 | 00:00:00 | 00:00:00 | |
| RDZ2B | 2026-09-02 13:15:54 | 41.78141 | 9.26759 | 333° | 26km/h | 35924m | -34.9m/s | 0°C | 0% | 0hPa | 0V | 00:00:00 | 00:00:00 | 00:00:00 | |
| RDZBGO | 2026-09-02 13:15:35 | 41.78122 | 9.26915 | 261° | 15km/h | 36602m | -45.8m/s | 0°C | 0% | 0hPa | 0V | 00:00:00 | 00:00:00 | 00:00:00 | |
| RDZ2B | 2026-09-02 13:15:34 | 41.78126 | 9.26923 | 236° | 44km/h | 36647m | -40.8m/s | 0°C | 0% | 0hPa | 0V | 00:00:00 | 00:00:00 | 00:00:00 | |
| RDZBGO | 2026-09-02 13:15:16 | 41.78144 | 9.27134 | 318° | 29km/h | 36616m | 6.0m/s | 0°C | 0% | 0hPa | 0V | 00:00:00 | 00:00:00 | 00:00:00 | |
| RDZ2B | 2026-09-02 13:15:10 | 41.78141 | 9.27145 | 220° | 31km/h | 36588m | 5.6m/s | 0°C | 0% | 0hPa | 0V | 00:00:00 | 00:00:00 | 00:00:00 | |
| RDZBGO | 2026-09-02 13:14:54 | 41.78137 | 9.27311 | 278° | 44km/h | 36499m | 4.7m/s | 0°C | 0% | 0hPa | 0V | 00:00:00 | 00:00:00 | 00:00:00 | |
| RDZ2B | 2026-09-02 13:14:49 | 41.78101 | 9.27350 | 350° | 33km/h | 36470m | 4.4m/s | 0°C | 0% | 0hPa | 0V | 00:00:00 | 00:00:00 | 00:00:00 | |
| RDZBGO | 2026-09-02 13:14:34 | 41.78054 | 9.27484 | 284° | 18km/h | 36386m | 5.9m/s | 0°C | 0% | 0hPa | 0V | 00:00:00 | 00:00:00 | 00:00:00 | |
| RDZ2B | 2026-09-02 13:14:29 | 41.78065 | 9.27528 | 271° | 40km/h | 36359m | 5.8m/s | 0°C | 0% | 0hPa | 0V | 00:00:00 | 00:00:00 | 00:00:00 | |
| RDZBGO | 2026-09-02 13:14:13 | 41.78027 | 9.27715 | 304° | 64km/h | 36265m | 4.5m/s | 0°C | 0% | 0hPa | 0V | 00:00:00 | 00:00:00 | 00:00:00 | |
| RDZ2B | 2026-09-02 13:14:08 | 41.78008 | 9.27753 | 171° | 18km/h | 36235m | 7.5m/s | 0°C | 0% | 0hPa | 0V | 00:00:00 | 00:00:00 | 00:00:00 | |
| RDZBGO | 2026-09-02 13:13:53 | 41.77987 | 9.27865 | 275° | 18km/h | 36152m | 4.6m/s | 0°C | 0% | 0hPa | 0V | 00:00:00 | 00:00:00 | 00:00:00 | |
| RDZ2B | 2026-09-02 13:13:48 | 41.77950 | 9.27925 | 320° | 51km/h | 36121m | 3.8m/s | 0°C | 0% | 0hPa | 0V | 00:00:00 | 00:00:00 | 00:00:00 | |
| RDZBGO | 2026-09-02 13:13:32 | 41.77868 | 9.28038 | 351° | 35km/h | 36029m | 6.6m/s | 0°C | 0% | 0hPa | 0V | 00:00:00 | 00:00:00 | 00:00:00 | |
| RDZ2B | 2026-09-02 13:13:28 | 41.77837 | 9.28040 | 326° | 22km/h | 36009m | 4.9m/s | 0°C | 0% | 0hPa | 0V | 00:00:00 | 00:00:00 | 00:00:00 | |
| RDZBGO | 2026-09-02 13:13:12 | 41.77773 | 9.28226 | 292° | 80km/h | 35919m | 2.0m/s | 0°C | 0% | 0hPa | 0V | 00:00:00 | 00:00:00 | 00:00:00 | |
| RDZ2B | 2026-09-02 13:13:07 | 41.77710 | 9.28258 | 52° | 24km/h | 35891m | 0.9m/s | 0°C | 0% | 0hPa | 0V | 00:00:00 | 00:00:00 | 00:00:00 | |
| RDZBGO | 2026-09-02 13:12:51 | 41.77655 | 9.28460 | 315° | 78km/h | 35802m | 3.6m/s | 0°C | 0% | 0hPa | 0V | 00:00:00 | 00:00:00 | 00:00:00 | |
| RDZ2B | 2026-09-02 13:12:46 | 41.77610 | 9.28477 | 252° | 18km/h | 35775m | 3.8m/s | 0°C | 0% | 0hPa | 0V | 00:00:00 | 00:00:00 | 00:00:00 | |
| RDZBGO | 2026-09-02 13:12:32 | 41.77533 | 9.28716 | 306° | 80km/h | 35689m | 2.0m/s | 0°C | 0% | 0hPa | 0V | 00:00:00 | 00:00:00 | 00:00:00 | |
| RDZ2B | 2026-09-02 13:12:25 | 41.77482 | 9.28756 | 269° | 35km/h | 35656m | 6.6m/s | 0°C | 0% | 0hPa | 0V | 00:00:00 | 00:00:00 | 00:00:00 | |
| RDZBGO | 2026-09-02 13:12:06 | 41.77353 | 9.29032 | 27° | 31km/h | 35542m | 2.0m/s | 0°C | 0% | 0hPa | 0V | 00:00:00 | 00:00:00 | 00:00:00 | |
| RDZ2B | 2026-09-02 13:12:04 | 41.77349 | 9.29034 | 242° | 26km/h | 35536m | 6.6m/s | 0°C | 0% | 0hPa | 0V | 00:00:00 | 00:00:00 | 00:00:00 | |
| RDZBGO | 2026-09-02 13:11:46 | 41.77261 | 9.29258 | 54° | 33km/h | 35430m | 4.5m/s | 0°C | 0% | 0hPa | 0V | 00:00:00 | 00:00:00 | 00:00:00 | |
| RDZ2B | 2026-09-02 13:11:42 | 41.77272 | 9.29278 | 259° | 68km/h | 35407m | 9.7m/s | 0°C | 0% | 0hPa | 0V | 00:00:00 | 00:00:00 | 00:00:00 | |
| RDZBGO | 2026-09-02 13:11:25 | 41.77219 | 9.29452 | 70° | 37km/h | 35310m | 4.3m/s | 0°C | 0% | 0hPa | 0V | 00:00:00 | 00:00:00 | 00:00:00 | |
| RDZ2B | 2026-09-02 13:11:22 | 41.77216 | 9.29450 | 271° | 29km/h | 35303m | 8.2m/s | 0°C | 0% | 0hPa | 0V | 00:00:00 | 00:00:00 | 00:00:00 | |
| RDZ2B | 2026-09-02 13:11:01 | 41.77107 | 9.29677 | 320° | 4km/h | 35178m | 2.8m/s | 0°C | 0% | 0hPa | 0V | 00:00:00 | 00:00:00 | 00:00:00 | |
| RDZ2B | 2026-09-02 13:10:38 | 41.76967 | 9.29974 | 247° | 24km/h | 35046m | 5.2m/s | 0°C | 0% | 0hPa | 0V | 00:00:00 | 00:00:00 | 00:00:00 | |
| RDZ2B | 2026-09-02 13:10:15 | 41.76846 | 9.30249 | 218° | 22km/h | 34918m | 6.1m/s | 0°C | 0% | 0hPa | 0V | 00:00:00 | 00:00:00 | 00:00:00 | |
| RDZ2B | 2026-09-02 13:09:55 | 41.76756 | 9.30488 | 4° | 18km/h | 34808m | 4.8m/s | 0°C | 0% | 0hPa | 0V | 00:00:00 | 00:00:00 | 00:00:00 | |
| RDZ2B | 2026-09-02 13:09:34 | 41.76673 | 9.30768 | 340° | 66km/h | 34681m | 4.2m/s | 0°C | 0% | 0hPa | 0V | 00:00:00 | 00:00:00 | 00:00:00 | |
| RDZ2B | 2026-09-02 13:09:14 | 41.76551 | 9.31034 | 285° | 47km/h | 34570m | 4.2m/s | 0°C | 0% | 0hPa | 0V | 00:00:00 | 00:00:00 | 00:00:00 | |
| RDZ2B | 2026-09-02 13:08:50 | 41.76423 | 9.31427 | 290° | 106km/h | 34426m | 5.0m/s | 0°C | 0% | 0hPa | 0V | 00:00:00 | 00:00:00 | 00:00:00 | |
| RDZ2B | 2026-09-02 13:08:29 | 41.76316 | 9.31708 | 341° | 73km/h | 34301m | 1.9m/s | 0°C | 0% | 0hPa | 0V | 00:00:00 | 00:00:00 | 00:00:00 | |
| RDZ2B | 2026-09-02 13:08:09 | 41.76238 | 9.31930 | 360° | 31km/h | 34176m | 10.5m/s | 0°C | 0% | 0hPa | 0V | 00:00:00 | 00:00:00 | 00:00:00 | |
| RDZ2B | 2026-09-02 13:07:48 | 41.76210 | 9.32150 | 158° | 35km/h | 34039m | 6.4m/s | 0°C | 0% | 0hPa | 0V | 00:00:00 | 00:00:00 | 00:00:00 | |
| RDZ2B | 2026-09-02 13:07:27 | 41.76193 | 9.32366 | 235° | 66km/h | 33908m | 5.7m/s | 0°C | 0% | 0hPa | 0V | 00:00:00 | 00:00:00 | 00:00:00 | |
| RDZ2B | 2026-09-02 13:07:05 | 41.76127 | 9.32595 | 339° | 73km/h | 33768m | 5.6m/s | 0°C | 0% | 0hPa | 0V | 00:00:00 | 00:00:00 | 00:00:00 | |
| RDZ2B | 2026-09-02 13:06:45 | 41.76023 | 9.32741 | 9° | 46km/h | 33649m | 5.7m/s | 0°C | 0% | 0hPa | 0V | 00:00:00 | 00:00:00 | 00:00:00 | |
| RDZ2B | 2026-09-02 13:06:18 | 41.75939 | 9.33030 | 349° | 53km/h | 33487m | 5.1m/s | 0°C | 0% | 0hPa | 0V | 00:00:00 | 00:00:00 | 00:00:00 | |
| RDZ2B | 2026-09-02 13:05:57 | 41.75812 | 9.33220 | 110° | 15km/h | 33355m | 5.9m/s | 0°C | 0% | 0hPa | 0V | 00:00:00 | 00:00:00 | 00:00:00 | |
| RDZ2B | 2026-09-02 13:05:35 | 41.75674 | 9.33477 | 254° | 75km/h | 33238m | 3.0m/s | 0°C | 0% | 0hPa | 0V | 00:00:00 | 00:00:00 | 00:00:00 | |
| RDZ2B | 2026-09-02 13:05:12 | 41.75580 | 9.33785 | 336° | 66km/h | 33110m | 2.8m/s | 0°C | 0% | 0hPa | 0V | 00:00:00 | 00:00:00 | 00:00:00 | |
| RDZ2B | 2026-09-02 13:04:52 | 41.75542 | 9.34029 | 4° | 49km/h | 33002m | 2.4m/s | 0°C | 0% | 0hPa | 0V | 00:00:00 | 00:00:00 | 00:00:00 | |
| RDZ2B | 2026-09-02 13:04:32 | 41.75493 | 9.34235 | 152° | 15km/h | 32889m | 6.6m/s | 0°C | 0% | 0hPa | 0V | 00:00:00 | 00:00:00 | 00:00:00 | |
| RDZ2B | 2026-09-02 13:04:12 | 41.75440 | 9.34473 | 201° | 53km/h | 32772m | 8.4m/s | 0°C | 0% | 0hPa | 0V | 00:00:00 | 00:00:00 | 00:00:00 | |
| RDZ2B | 2026-09-02 13:03:46 | 41.75398 | 9.34733 | 325° | 16km/h | 32632m | 5.7m/s | 0°C | 0% | 0hPa | 0V | 00:00:00 | 00:00:00 | 00:00:00 | |
| RDZ2B | 2026-09-02 13:03:25 | 41.75406 | 9.34964 | 260° | 33km/h | 32512m | 8.7m/s | 0°C | 0% | 0hPa | 0V | 00:00:00 | 00:00:00 | 00:00:00 | |
| RDZ2B | 2026-09-02 13:03:04 | 41.75478 | 9.35273 | 213° | 46km/h | 32383m | 8.4m/s | 0°C | 0% | 0hPa | 0V | 00:00:00 | 00:00:00 | 00:00:00 | |
| RDZ2B | 2026-09-02 13:02:43 | 41.75607 | 9.35432 | 223° | 16km/h | 32251m | 4.6m/s | 0°C | 0% | 0hPa | 0V | 00:00:00 | 00:00:00 | 00:00:00 | |
| RDZ2B | 2026-09-02 13:02:21 | 41.75695 | 9.35501 | 199° | 20km/h | 32136m | 8.1m/s | 0°C | 0% | 0hPa | 0V | 00:00:00 | 00:00:00 | 00:00:00 | |
| RDZ2B | 2026-09-02 13:02:00 | 41.75773 | 9.35583 | 211° | 37km/h | 32009m | 7.6m/s | 0°C | 0% | 0hPa | 0V | 00:00:00 | 00:00:00 | 00:00:00 | |
| RDZ2B | 2026-09-02 13:01:40 | 41.75808 | 9.35670 | 205° | 27km/h | 31896m | 6.2m/s | 0°C | 0% | 0hPa | 0V | 00:00:00 | 00:00:00 | 00:00:00 | |
| RDZ2B | 2026-09-02 13:01:18 | 41.75893 | 9.35775 | 167° | 38km/h | 31773m | 2.9m/s | 0°C | 0% | 0hPa | 0V | 00:00:00 | 00:00:00 | 00:00:00 | |
| RDZ2B | 2026-09-02 13:00:56 | 41.76061 | 9.35920 | 243° | 71km/h | 31648m | 3.2m/s | 0°C | 0% | 0hPa | 0V | 00:00:00 | 00:00:00 | 00:00:00 | |
| RDZ2B | 2026-09-02 13:00:35 | 41.76197 | 9.36068 | 306° | 15km/h | 31525m | 8.0m/s | 0°C | 0% | 0hPa | 0V | 00:00:00 | 00:00:00 | 00:00:00 | |
| RDZ2B | 2026-09-02 13:00:15 | 41.76330 | 9.36160 | 118° | 20km/h | 31415m | 4.9m/s | 0°C | 0% | 0hPa | 0V | 00:00:00 | 00:00:00 | 00:00:00 | |
| RDZ2B | 2026-09-02 12:59:51 | 41.76460 | 9.36244 | 196° | 44km/h | 31273m | 3.5m/s | 0°C | 0% | 0hPa | 0V | 00:00:00 | 00:00:00 | 00:00:00 | |
| RDZ2B | 2026-09-02 12:59:30 | 41.76514 | 9.36364 | 290° | 18km/h | 31154m | 6.8m/s | 0°C | 0% | 0hPa | 0V | 00:00:00 | 00:00:00 | 00:00:00 | |
| RDZ2B | 2026-09-02 12:59:09 | 41.76567 | 9.36436 | 151° | 13km/h | 31032m | 6.9m/s | 0°C | 0% | 0hPa | 0V | 00:00:00 | 00:00:00 | 00:00:00 | |
| RDZ2B | 2026-09-02 12:58:48 | 41.76665 | 9.36503 | 182° | 33km/h | 30908m | 4.8m/s | 0°C | 0% | 0hPa | 0V | 00:00:00 | 00:00:00 | 00:00:00 | |
| RDZ2B | 2026-09-02 12:58:27 | 41.76741 | 9.36592 | 293° | 18km/h | 30784m | 7.5m/s | 0°C | 0% | 0hPa | 0V | 00:00:00 | 00:00:00 | 00:00:00 | |
| IW2NTF | 2026-09-02 12:58:09 | 41.76807 | 9.36698 | 204° | 29km/h | 30648m | 4.2m/s | 0°C | 0% | 0hPa | 0V | 00:00:00 | 00:00:00 | 00:00:00 | |
| RDZ2B | 2026-09-02 12:58:07 | 41.76793 | 9.36673 | 271° | 31km/h | 30666m | 6.4m/s | 0°C | 0% | 0hPa | 0V | 00:00:00 | 00:00:00 | 00:00:00 | |
| IW2NTF | 2026-09-02 12:57:56 | 41.76826 | 9.36742 | 349° | 27km/h | 30572m | 3.4m/s | 0°C | 0% | 0hPa | 0V | 00:00:00 | 00:00:00 | 00:00:00 | |
| RDZ2B | 2026-09-02 12:57:45 | 41.76833 | 9.36774 | 210° | 42km/h | 30544m | 3.6m/s | 0°C | 0% | 0hPa | 0V | 00:00:00 | 00:00:00 | 00:00:00 | |
| IW2NTF | 2026-09-02 12:57:36 | 41.76862 | 9.36807 | 19° | 11km/h | 30467m | 5m/s | 0°C | 0% | 0hPa | 0V | 00:00:00 | 00:00:00 | 00:00:00 | |
| RDZ2B | 2026-09-02 12:57:25 | 41.76875 | 9.36834 | 198° | 16km/h | 30435m | 5.7m/s | 0°C | 0% | 0hPa | 0V | 00:00:00 | 00:00:00 | 00:00:00 | |
| IW2NTF | 2026-09-02 12:57:22 | 41.76907 | 9.36827 | 146° | 9km/h | 30388m | 6.7m/s | 0°C | 0% | 0hPa | 0V | 00:00:00 | 00:00:00 | 00:00:00 | |
| IW2NTF | 2026-09-02 12:57:10 | 41.76910 | 9.36820 | 36° | 35km/h | 30325m | 5.5m/s | 0°C | 0% | 0hPa | 0V | 00:00:00 | 00:00:00 | 00:00:00 | |
| RDZ2B | 2026-09-02 12:57:05 | 41.76910 | 9.36820 | 37° | 35km/h | 30325m | 5.6m/s | 0°C | 0% | 0hPa | 0V | 00:00:00 | 00:00:00 | 00:00:00 | |
| IW2NTF | 2026-09-02 12:56:56 | 41.76905 | 9.36819 | 4° | 20km/h | 30265m | 5.1m/s | 0°C | 0% | 0hPa | 0V | 00:00:00 | 00:00:00 | 00:00:00 | |
| RDZ2B | 2026-09-02 12:56:48 | 41.76900 | 9.36854 | 259° | 5km/h | 30208m | 5.9m/s | 0°C | 0% | 0hPa | 0V | 00:00:00 | 00:00:00 | 00:00:00 | |
| IW2NTF | 2026-09-02 12:56:43 | 41.76884 | 9.36897 | 311° | 24km/h | 30172m | 2.9m/s | 0°C | 0% | 0hPa | 0V | 00:00:00 | 00:00:00 | 00:00:00 | |
| RDZ2B | 2026-09-02 12:56:24 | 41.76877 | 9.36970 | 206° | 31km/h | 30101m | 2.2m/s | 0°C | 0% | 0hPa | 0V | 00:00:00 | 00:00:00 | 00:00:00 | |
| RDZ2B | 2026-09-02 12:55:54 | 41.76861 | 9.37113 | 319° | 16km/h | 29934m | 3.8m/s | 0°C | 0% | 0hPa | 0V | 00:00:00 | 00:00:00 | 00:00:00 | |
| IW2NTF | 2026-09-02 12:55:53 | 41.76866 | 9.37115 | 174° | 24km/h | 29915m | 4.8m/s | 0°C | 0% | 0hPa | 0V | 00:00:00 | 00:00:00 | 00:00:00 | |
| IW2NTF | 2026-09-02 12:55:36 | 41.76878 | 9.37194 | 223° | 29km/h | 29816m | 6.6m/s | 0°C | 0% | 0hPa | 0V | 00:00:00 | 00:00:00 | 00:00:00 | |
| RDZ2B | 2026-09-02 12:55:34 | 41.76877 | 9.37194 | 224° | 29km/h | 29817m | 6.6m/s | 0°C | 0% | 0hPa | 0V | 00:00:00 | 00:00:00 | 00:00:00 | |
| IW2NTF | 2026-09-02 12:55:30 | 41.76899 | 9.37222 | 233° | 27km/h | 29759m | 3.7m/s | 0°C | 0% | 0hPa | 0V | 00:00:00 | 00:00:00 | 00:00:00 | |
| RDZ2B | 2026-09-02 12:55:14 | 41.76913 | 9.37246 | 242° | 16km/h | 29704m | 4.1m/s | 0°C | 0% | 0hPa | 0V | 00:00:00 | 00:00:00 | 00:00:00 | |
| IW2NTF | 2026-09-02 12:55:13 | 41.76900 | 9.37240 | 54° | 22km/h | 29677m | 3.4m/s | 0°C | 0% | 0hPa | 0V | 00:00:00 | 00:00:00 | 00:00:00 | |
| IW2NTF | 2026-09-02 12:55:04 | 41.76911 | 9.37235 | 167° | 13km/h | 29605m | 5.6m/s | 0°C | 0% | 0hPa | 0V | 00:00:00 | 00:00:00 | 00:00:00 | |
| RDZ2B | 2026-09-02 12:54:53 | 41.76922 | 9.37245 | 207° | 13km/h | 29575m | 6.5m/s | 0°C | 0% | 0hPa | 0V | 00:00:00 | 00:00:00 | 00:00:00 | |
| RDZ2B | 2026-09-02 12:54:33 | 41.76913 | 9.37221 | 175° | 22km/h | 29456m | 4.7m/s | 0°C | 0% | 0hPa | 0V | 00:00:00 | 00:00:00 | 00:00:00 | |
| IW2NTF | 2026-09-02 12:54:20 | 41.76873 | 9.37258 | 321° | 20km/h | 29335m | 4.4m/s | 0°C | 0% | 0hPa | 0V | 00:00:00 | 00:00:00 | 00:00:00 | |
| RDZ2B | 2026-09-02 12:54:12 | 41.76871 | 9.37262 | 296° | 11km/h | 29329m | 6.9m/s | 0°C | 0% | 0hPa | 0V | 00:00:00 | 00:00:00 | 00:00:00 | |
| IW2NTF | 2026-09-02 12:54:03 | 41.76844 | 9.37336 | 342° | 35km/h | 29239m | 5.2m/s | 0°C | 0% | 0hPa | 0V | 00:00:00 | 00:00:00 | 00:00:00 | |
| RDZ2B | 2026-09-02 12:53:51 | 41.76827 | 9.37380 | 278° | 20km/h | 29206m | 3.5m/s | 0°C | 0% | 0hPa | 0V | 00:00:00 | 00:00:00 | 00:00:00 | |
| IW2NTF | 2026-09-02 12:53:44 | 41.76794 | 9.37417 | 259° | 24km/h | 29150m | 5.9m/s | 0°C | 0% | 0hPa | 0V | 00:00:00 | 00:00:00 | 00:00:00 | |
| RDZ2B | 2026-09-02 12:53:31 | 41.76751 | 9.37443 | 276° | 15km/h | 29084m | 6.3m/s | 0°C | 0% | 0hPa | 0V | 00:00:00 | 00:00:00 | 00:00:00 | |
| IW2NTF | 2026-09-02 12:53:17 | 41.76664 | 9.37491 | 246° | 24km/h | 28972m | 6.3m/s | 0°C | 0% | 0hPa | 0V | 00:00:00 | 00:00:00 | 00:00:00 | |
| RDZ2B | 2026-09-02 12:53:10 | 41.76668 | 9.37502 | 269° | 13km/h | 28963m | 5.0m/s | 0°C | 0% | 0hPa | 0V | 00:00:00 | 00:00:00 | 00:00:00 | |
| IW2NTF | 2026-09-02 12:53:03 | 41.76632 | 9.37543 | 321° | 31km/h | 28899m | 5.6m/s | 0°C | 0% | 0hPa | 0V | 00:00:00 | 00:00:00 | 00:00:00 | |
| IW2NTF | 2026-09-02 12:52:52 | 41.76618 | 9.37614 | 237° | 24km/h | 28831m | 7.1m/s | 0°C | 0% | 0hPa | 0V | 00:00:00 | 00:00:00 | 00:00:00 | |
| RDZ2B | 2026-09-02 12:52:49 | 41.76617 | 9.37598 | 294° | 27km/h | 28844m | 3.9m/s | 0°C | 0% | 0hPa | 0V | 00:00:00 | 00:00:00 | 00:00:00 | |
| RDZ2B | 2026-09-02 12:52:29 | 41.76596 | 9.37716 | 288° | 31km/h | 28727m | 7.7m/s | 0°C | 0% | 0hPa | 0V | 00:00:00 | 00:00:00 | 00:00:00 | |
| RDZ2B | 2026-09-02 12:52:08 | 41.76525 | 9.37833 | 271° | 37km/h | 28607m | 7.5m/s | 0°C | 0% | 0hPa | 0V | 00:00:00 | 00:00:00 | 00:00:00 | |
| IW2NTF | 2026-09-02 12:52:06 | 41.76514 | 9.37884 | 328° | 35km/h | 28587m | 6.8m/s | 0°C | 0% | 0hPa | 0V | 00:00:00 | 00:00:00 | 00:00:00 | |
| RDZ2B | 2026-09-02 12:51:47 | 41.76465 | 9.37979 | 331° | 27km/h | 28494m | 7.0m/s | 0°C | 0% | 0hPa | 0V | 00:00:00 | 00:00:00 | 00:00:00 | |
| IW2NTF | 2026-09-02 12:51:42 | 41.76432 | 9.38039 | 333° | 20km/h | 28436m | 3.7m/s | 0°C | 0% | 0hPa | 0V | 00:00:00 | 00:00:00 | 00:00:00 | |
| RDZ2B | 2026-09-02 12:51:24 | 41.76422 | 9.38112 | 232° | 22km/h | 28370m | 3.7m/s | 0°C | 0% | 0hPa | 0V | 00:00:00 | 00:00:00 | 00:00:00 | |
| IW2NTF | 2026-09-02 12:51:16 | 41.76419 | 9.38163 | 323° | 9km/h | 28304m | 5.7m/s | 0°C | 0% | 0hPa | 0V | 00:00:00 | 00:00:00 | 00:00:00 | |
| IW2NTF | 2026-09-02 12:51:09 | 41.76411 | 9.38193 | 206° | 13km/h | 28243m | 7.1m/s | 0°C | 0% | 0hPa | 0V | 00:00:00 | 00:00:00 | 00:00:00 | |
| RDZ2B | 2026-09-02 12:51:03 | 41.76410 | 9.38192 | 0° | 0km/h | 28250m | 5.3m/s | 0°C | 0% | 0hPa | 0V | 00:00:00 | 00:00:00 | 00:00:00 | |
| IW2NTF | 2026-09-02 12:50:46 | 41.76386 | 9.38234 | 13° | 13km/h | 28130m | 7.9m/s | 0°C | 0% | 0hPa | 0V | 00:00:00 | 00:00:00 | 00:00:00 | |
| RDZ2B | 2026-09-02 12:50:42 | 41.76386 | 9.38234 | 14° | 13km/h | 28130m | 7.9m/s | 0°C | 0% | 0hPa | 0V | 00:00:00 | 00:00:00 | 00:00:00 | |
| IW2NTF | 2026-09-02 12:50:22 | 41.76316 | 9.38212 | 323° | 9km/h | 27977m | 7m/s | 0°C | 0% | 0hPa | 0V | 00:00:00 | 00:00:00 | 00:00:00 | |
| RDZ2B | 2026-09-02 12:50:21 | 41.76333 | 9.38233 | 72° | 9km/h | 28008m | 6.4m/s | 0°C | 0% | 0hPa | 0V | 00:00:00 | 00:00:00 | 00:00:00 | |
| RDZ2B | 2026-09-02 12:50:00 | 41.76263 | 9.38201 | 103° | 9km/h | 27886m | 8.3m/s | 0°C | 0% | 0hPa | 0V | 00:00:00 | 00:00:00 | 00:00:00 | |
| RDZ2B | 2026-09-02 12:49:39 | 41.76183 | 9.38179 | 350° | 22km/h | 27762m | 5.8m/s | 0°C | 0% | 0hPa | 0V | 00:00:00 | 00:00:00 | 00:00:00 | |
| IW2NTF | 2026-09-02 12:49:27 | 41.76110 | 9.38197 | 1° | 27km/h | 27674m | 4.6m/s | 0°C | 0% | 0hPa | 0V | 00:00:00 | 00:00:00 | 00:00:00 | |
| RDZ2B | 2026-09-02 12:49:18 | 41.76086 | 9.38217 | 337° | 26km/h | 27641m | 6.3m/s | 0°C | 0% | 0hPa | 0V | 00:00:00 | 00:00:00 | 00:00:00 | |
| IW2NTF | 2026-09-02 12:49:16 | 41.76060 | 9.38270 | 300° | 31km/h | 27597m | 6.7m/s | 0°C | 0% | 0hPa | 0V | 00:00:00 | 00:00:00 | 00:00:00 | |
| RDZ2B | 2026-09-02 12:48:58 | 41.76016 | 9.38365 | 337° | 31km/h | 27529m | 3.1m/s | 0°C | 0% | 0hPa | 0V | 00:00:00 | 00:00:00 | 00:00:00 | |
| IW2NTF | 2026-09-02 12:48:57 | 41.76017 | 9.38430 | 300° | 33km/h | 27489m | 7.8m/s | 0°C | 0% | 0hPa | 0V | 00:00:00 | 00:00:00 | 00:00:00 | |
| RDZ2B | 2026-09-02 12:48:39 | 41.76019 | 9.38535 | 261° | 27km/h | 27417m | 4.3m/s | 0°C | 0% | 0hPa | 0V | 00:00:00 | 00:00:00 | 00:00:00 | |
| RDZ2B | 2026-09-02 12:48:17 | 41.76073 | 9.38672 | 319° | 15km/h | 27307m | 4.1m/s | 0°C | 0% | 0hPa | 0V | 00:00:00 | 00:00:00 | 00:00:00 | |
| RDZ2B | 2026-09-02 12:47:57 | 41.76110 | 9.38733 | 260° | 27km/h | 27200m | 4.7m/s | 0°C | 0% | 0hPa | 0V | 00:00:00 | 00:00:00 | 00:00:00 | |
| RDZ2B | 2026-09-02 12:47:35 | 41.76128 | 9.38834 | 216° | 24km/h | 27085m | 6.2m/s | 0°C | 0% | 0hPa | 0V | 00:00:00 | 00:00:00 | 00:00:00 | |
| RDZ2B | 2026-09-02 12:47:14 | 41.76180 | 9.38892 | 190° | 26km/h | 26976m | 6.0m/s | 0°C | 0% | 0hPa | 0V | 00:00:00 | 00:00:00 | 00:00:00 | |
| RDZ2B | 2026-09-02 12:46:53 | 41.76217 | 9.38955 | 113° | 11km/h | 26867m | 7.9m/s | 0°C | 0% | 0hPa | 0V | 00:00:00 | 00:00:00 | 00:00:00 | |
| RDZ2B | 2026-09-02 12:46:31 | 41.76197 | 9.38998 | 214° | 9km/h | 26754m | 3.6m/s | 0°C | 0% | 0hPa | 0V | 00:00:00 | 00:00:00 | 00:00:00 | |
| RDZ2B | 2026-09-02 12:46:11 | 41.76155 | 9.39024 | 83° | 15km/h | 26648m | 4.8m/s | 0°C | 0% | 0hPa | 0V | 00:00:00 | 00:00:00 | 00:00:00 | |
| RDZ2B | 2026-09-02 12:45:52 | 41.76116 | 9.39048 | 102° | 5km/h | 26537m | 5.7m/s | 0°C | 0% | 0hPa | 0V | 00:00:00 | 00:00:00 | 00:00:00 | |
| RDZ2B | 2026-09-02 12:45:31 | 41.76123 | 9.39028 | 174° | 13km/h | 26434m | 3.7m/s | 0°C | 0% | 0hPa | 0V | 00:00:00 | 00:00:00 | 00:00:00 | |
| RDZ2B | 2026-09-02 12:45:07 | 41.76141 | 9.38958 | 148° | 7km/h | 26301m | 4.8m/s | 0°C | 0% | 0hPa | 0V | 00:00:00 | 00:00:00 | 00:00:00 | |
| RDZ2B | 2026-09-02 12:44:45 | 41.76127 | 9.38949 | 266° | 5km/h | 26181m | 5.8m/s | 0°C | 0% | 0hPa | 0V | 00:00:00 | 00:00:00 | 00:00:00 | |
| RDZ2B | 2026-09-02 12:44:24 | 41.76130 | 9.38933 | 213° | 9km/h | 26064m | 6.2m/s | 0°C | 0% | 0hPa | 0V | 00:00:00 | 00:00:00 | 00:00:00 | |
| RDZ2B | 2026-09-02 12:44:02 | 41.76126 | 9.38909 | 31° | 5km/h | 25947m | 6.7m/s | 0°C | 0% | 0hPa | 0V | 00:00:00 | 00:00:00 | 00:00:00 | |
| RDZ2B | 2026-09-02 12:43:41 | 41.76134 | 9.38858 | 77° | 22km/h | 25829m | 4.9m/s | 0°C | 0% | 0hPa | 0V | 00:00:00 | 00:00:00 | 00:00:00 | |
| RDZ2B | 2026-09-02 12:43:12 | 41.76138 | 9.38825 | 211° | 11km/h | 25678m | 5.1m/s | 0°C | 0% | 0hPa | 0V | 00:00:00 | 00:00:00 | 00:00:00 | |
| RDZ2B | 2026-09-02 12:42:52 | 41.76119 | 9.38869 | 264° | 26km/h | 25573m | 6.2m/s | 0°C | 0% | 0hPa | 0V | 00:00:00 | 00:00:00 | 00:00:00 | |
| RDZ2B | 2026-09-02 12:42:31 | 41.76139 | 9.38917 | 238° | 27km/h | 25459m | 6.3m/s | 0°C | 0% | 0hPa | 0V | 00:00:00 | 00:00:00 | 00:00:00 | |
| RDZ2B | 2026-09-02 12:42:11 | 41.76181 | 9.38918 | 166° | 22km/h | 25354m | 3.0m/s | 0°C | 0% | 0hPa | 0V | 00:00:00 | 00:00:00 | 00:00:00 | |
| RDZ2B | 2026-09-02 12:41:50 | 41.76176 | 9.38850 | 52° | 16km/h | 25247m | 6.4m/s | 0°C | 0% | 0hPa | 0V | 00:00:00 | 00:00:00 | 00:00:00 | |
| RDZ2B | 2026-09-02 12:41:29 | 41.76084 | 9.38804 | 345° | 24km/h | 25137m | 4.9m/s | 0°C | 0% | 0hPa | 0V | 00:00:00 | 00:00:00 | 00:00:00 | |
| RDZ2B | 2026-09-02 12:41:08 | 41.75981 | 9.38813 | 317° | 31km/h | 25027m | 4.2m/s | 0°C | 0% | 0hPa | 0V | 00:00:00 | 00:00:00 | 00:00:00 | |
| RDZ2B | 2026-09-02 12:40:48 | 41.75925 | 9.38851 | 278° | 16km/h | 24920m | 6.6m/s | 0°C | 0% | 0hPa | 0V | 00:00:00 | 00:00:00 | 00:00:00 | |
| IW2NTF | 2026-09-02 12:40:46 | 41.75898 | 9.38867 | 272° | 24km/h | 24873m | 5m/s | 0°C | 0% | 0hPa | 0V | 00:00:00 | 00:00:00 | 00:00:00 | |
| RDZ2B | 2026-09-02 12:40:28 | 41.75866 | 9.38907 | 315° | 11km/h | 24816m | 5.4m/s | 0°C | 0% | 0hPa | 0V | 00:00:00 | 00:00:00 | 00:00:00 | |
| RDZBGO | 2026-09-02 12:40:23 | 41.75848 | 9.38921 | 323° | 29km/h | 24791m | 4.9m/s | 0°C | 0% | 0hPa | 0V | 00:00:00 | 00:00:00 | 00:00:00 | |
| IW2NTF | 2026-09-02 12:40:09 | 41.75722 | 9.38979 | 331° | 35km/h | 24683m | 6m/s | 0°C | 0% | 0hPa | 0V | 00:00:00 | 00:00:00 | 00:00:00 | |
| RDZ2B | 2026-09-02 12:40:07 | 41.75746 | 9.38971 | 351° | 20km/h | 24704m | 6.2m/s | 0°C | 0% | 0hPa | 0V | 00:00:00 | 00:00:00 | 00:00:00 | |
| RDZBGO | 2026-09-02 12:39:57 | 41.75680 | 9.38995 | 339° | 24km/h | 24651m | 5.7m/s | 0°C | 0% | 0hPa | 0V | 00:00:00 | 00:00:00 | 00:00:00 | |
| RDZ2B | 2026-09-02 12:39:46 | 41.75607 | 9.39014 | 20° | 22km/h | 24592m | 5.5m/s | 0°C | 0% | 0hPa | 0V | 00:00:00 | 00:00:00 | 00:00:00 | |
| IW2NTF | 2026-09-02 12:39:40 | 41.75553 | 9.39032 | 337° | 31km/h | 24544m | 6m/s | 0°C | 0% | 0hPa | 0V | 00:00:00 | 00:00:00 | 00:00:00 | |
| RDZBGO | 2026-09-02 12:39:36 | 41.75546 | 9.39036 | 335° | 27km/h | 24539m | 4.6m/s | 0°C | 0% | 0hPa | 0V | 00:00:00 | 00:00:00 | 00:00:00 | |
| RDZ2B | 2026-09-02 12:39:26 | 41.75484 | 9.39071 | 346° | 20km/h | 24488m | 4.2m/s | 0°C | 0% | 0hPa | 0V | 00:00:00 | 00:00:00 | 00:00:00 | |
| RDZBGO | 2026-09-02 12:39:16 | 41.75432 | 9.39114 | 327° | 24km/h | 24436m | 6.0m/s | 0°C | 0% | 0hPa | 0V | 00:00:00 | 00:00:00 | 00:00:00 | |
| RDZBGO | 2026-09-02 12:38:49 | 41.75347 | 9.39262 | 5° | 4km/h | 24300m | 4.4m/s | 0°C | 0% | 0hPa | 0V | 00:00:00 | 00:00:00 | 00:00:00 | |
| RDZ2B | 2026-09-02 12:38:44 | 41.75331 | 9.39265 | 305° | 11km/h | 24275m | 6.2m/s | 0°C | 0% | 0hPa | 0V | 00:00:00 | 00:00:00 | 00:00:00 | |
| RDZBGO | 2026-09-02 12:38:28 | 41.75300 | 9.39307 | 294° | 5km/h | 24195m | 4.3m/s | 0°C | 0% | 0hPa | 0V | 00:00:00 | 00:00:00 | 00:00:00 | |
| RDZ2B | 2026-09-02 12:38:24 | 41.75287 | 9.39304 | 28° | 18km/h | 24173m | 6.4m/s | 0°C | 0% | 0hPa | 0V | 00:00:00 | 00:00:00 | 00:00:00 | |
| IW2NTF | 2026-09-02 12:38:18 | 41.75240 | 9.39295 | 1° | 29km/h | 24110m | 3.5m/s | 0°C | 0% | 0hPa | 0V | 00:00:00 | 00:00:00 | 00:00:00 | |
| RDZBGO | 2026-09-02 12:38:07 | 41.75220 | 9.39304 | 330° | 15km/h | 24087m | 4.9m/s | 0°C | 0% | 0hPa | 0V | 00:00:00 | 00:00:00 | 00:00:00 | |
| IW2NTF | 2026-09-02 12:38:05 | 41.75178 | 9.39305 | 332° | 27km/h | 24039m | 4.4m/s | 0°C | 0% | 0hPa | 0V | 00:00:00 | 00:00:00 | 00:00:00 | |
| RDZ2B | 2026-09-02 12:38:03 | 41.75199 | 9.39303 | 27° | 18km/h | 24067m | 5.7m/s | 0°C | 0% | 0hPa | 0V | 00:00:00 | 00:00:00 | 00:00:00 | |
| RDZ2B | 2026-09-02 12:37:43 | 41.75127 | 9.39325 | 344° | 26km/h | 23964m | 3.9m/s | 0°C | 0% | 0hPa | 0V | 00:00:00 | 00:00:00 | 00:00:00 | |
| RDZ2B | 2026-09-02 12:37:22 | 41.75043 | 9.39372 | 332° | 20km/h | 23858m | 5.6m/s | 0°C | 0% | 0hPa | 0V | 00:00:00 | 00:00:00 | 00:00:00 | |
| RDZ2B | 2026-09-02 12:37:02 | 41.74964 | 9.39435 | 323° | 22km/h | 23757m | 5.8m/s | 0°C | 0% | 0hPa | 0V | 00:00:00 | 00:00:00 | 00:00:00 | |
| RDZBGO | 2026-09-02 12:37:01 | 41.74960 | 9.39439 | 329° | 18km/h | 23752m | 3.8m/s | 0°C | 0% | 0hPa | 0V | 00:00:00 | 00:00:00 | 00:00:00 | |
| RDZ2B | 2026-09-02 12:36:42 | 41.74892 | 9.39502 | 312° | 18km/h | 23656m | 5.9m/s | 0°C | 0% | 0hPa | 0V | 00:00:00 | 00:00:00 | 00:00:00 | |
| RDZBGO | 2026-09-02 12:36:39 | 41.74881 | 9.39507 | 348° | 11km/h | 23640m | 4.3m/s | 0°C | 0% | 0hPa | 0V | 00:00:00 | 00:00:00 | 00:00:00 | |
| RDZ2B | 2026-09-02 12:36:21 | 41.74850 | 9.39562 | 251° | 13km/h | 23552m | 4.9m/s | 0°C | 0% | 0hPa | 0V | 00:00:00 | 00:00:00 | 00:00:00 | |
| RDZBGO | 2026-09-02 12:36:18 | 41.74851 | 9.39561 | 88° | 11km/h | 23535m | 4.8m/s | 0°C | 0% | 0hPa | 0V | 00:00:00 | 00:00:00 | 00:00:00 | |
| RDZ2B | 2026-09-02 12:36:00 | 41.74824 | 9.39573 | 291° | 11km/h | 23450m | 4.8m/s | 0°C | 0% | 0hPa | 0V | 00:00:00 | 00:00:00 | 00:00:00 | |
| RDZBGO | 2026-09-02 12:35:57 | 41.74820 | 9.39569 | 56° | 13km/h | 23434m | 3.7m/s | 0°C | 0% | 0hPa | 0V | 00:00:00 | 00:00:00 | 00:00:00 | |
| RDZ2B | 2026-09-02 12:35:39 | 41.74769 | 9.39580 | 310° | 5km/h | 23342m | 5.9m/s | 0°C | 0% | 0hPa | 0V | 00:00:00 | 00:00:00 | 00:00:00 | |
| RDZBGO | 2026-09-02 12:35:31 | 41.74742 | 9.39576 | 15° | 16km/h | 23301m | 6.1m/s | 0°C | 0% | 0hPa | 0V | 00:00:00 | 00:00:00 | 00:00:00 | |
| RDZ2B | 2026-09-02 12:35:18 | 41.74684 | 9.39566 | 327° | 15km/h | 23235m | 4.1m/s | 0°C | 0% | 0hPa | 0V | 00:00:00 | 00:00:00 | 00:00:00 | |
| RDZBGO | 2026-09-02 12:35:06 | 41.74638 | 9.39560 | 337° | 13km/h | 23173m | 4.1m/s | 0°C | 0% | 0hPa | 0V | 00:00:00 | 00:00:00 | 00:00:00 | |
| RDZ2B | 2026-09-02 12:34:58 | 41.74619 | 9.39572 | 327° | 13km/h | 23134m | 5.1m/s | 0°C | 0% | 0hPa | 0V | 00:00:00 | 00:00:00 | 00:00:00 | |
| RDZBGO | 2026-09-02 12:34:42 | 41.74576 | 9.39588 | 40° | 9km/h | 23052m | 3.7m/s | 0°C | 0% | 0hPa | 0V | 00:00:00 | 00:00:00 | 00:00:00 | |
| RDZ2B | 2026-09-02 12:34:38 | 41.74567 | 9.39589 | 15° | 9km/h | 23026m | 5.4m/s | 0°C | 0% | 0hPa | 0V | 00:00:00 | 00:00:00 | 00:00:00 | |
| RDZBGO | 2026-09-02 12:34:22 | 41.74513 | 9.39580 | 44° | 7km/h | 22947m | 4.8m/s | 0°C | 0% | 0hPa | 0V | 00:00:00 | 00:00:00 | 00:00:00 | |
| RDZ2B | 2026-09-02 12:34:18 | 41.74501 | 9.39586 | 354° | 13km/h | 22926m | 4.8m/s | 0°C | 0% | 0hPa | 0V | 00:00:00 | 00:00:00 | 00:00:00 | |
| RDZBGO | 2026-09-02 12:34:01 | 41.74459 | 9.39565 | 36° | 9km/h | 22844m | 6.0m/s | 0°C | 0% | 0hPa | 0V | 00:00:00 | 00:00:00 | 00:00:00 | |
| RDZ2B | 2026-09-02 12:33:56 | 41.74451 | 9.39571 | 145° | 5km/h | 22817m | 4.4m/s | 0°C | 0% | 0hPa | 0V | 00:00:00 | 00:00:00 | 00:00:00 | |
| RDZBGO | 2026-09-02 12:33:41 | 41.74417 | 9.39552 | 40° | 24km/h | 22746m | 3.9m/s | 0°C | 0% | 0hPa | 0V | 00:00:00 | 00:00:00 | 00:00:00 | |
| RDZ2B | 2026-09-02 12:33:36 | 41.74405 | 9.39545 | 89° | 9km/h | 22718m | 5.8m/s | 0°C | 0% | 0hPa | 0V | 00:00:00 | 00:00:00 | 00:00:00 | |
| RDZBGO | 2026-09-02 12:33:20 | 41.74377 | 9.39513 | 19° | 16km/h | 22640m | 4.8m/s | 0°C | 0% | 0hPa | 0V | 00:00:00 | 00:00:00 | 00:00:00 | |
| RDZ2B | 2026-09-02 12:33:15 | 41.74359 | 9.39505 | 16° | 13km/h | 22616m | 4.4m/s | 0°C | 0% | 0hPa | 0V | 00:00:00 | 00:00:00 | 00:00:00 | |
| RDZBGO | 2026-09-02 12:33:00 | 41.74303 | 9.39516 | 344° | 16km/h | 22541m | 4.8m/s | 0°C | 0% | 0hPa | 0V | 00:00:00 | 00:00:00 | 00:00:00 | |
| RDZ2B | 2026-09-02 12:32:54 | 41.74280 | 9.39534 | 23° | 7km/h | 22507m | 5.3m/s | 0°C | 0% | 0hPa | 0V | 00:00:00 | 00:00:00 | 00:00:00 | |
| RDZBGO | 2026-09-02 12:32:38 | 41.74225 | 9.39578 | 314° | 35km/h | 22430m | 6.3m/s | 0°C | 0% | 0hPa | 0V | 00:00:00 | 00:00:00 | 00:00:00 | |
| RDZ2B | 2026-09-02 12:32:34 | 41.74210 | 9.39608 | 334° | 13km/h | 22409m | 6.6m/s | 0°C | 0% | 0hPa | 0V | 00:00:00 | 00:00:00 | 00:00:00 | |
| RDZBGO | 2026-09-02 12:32:17 | 41.74154 | 9.39703 | 305° | 27km/h | 22324m | 5.3m/s | 0°C | 0% | 0hPa | 0V | 00:00:00 | 00:00:00 | 00:00:00 | |
| RDZ2B | 2026-09-02 12:32:13 | 41.74146 | 9.39725 | 326° | 7km/h | 22303m | 4.9m/s | 0°C | 0% | 0hPa | 0V | 00:00:00 | 00:00:00 | 00:00:00 | |
| RDZBGO | 2026-09-02 12:31:56 | 41.74072 | 9.39829 | 284° | 24km/h | 22225m | 3.2m/s | 0°C | 0% | 0hPa | 0V | 00:00:00 | 00:00:00 | 00:00:00 | |
| RDZ2B | 2026-09-02 12:31:52 | 41.74064 | 9.39845 | 327° | 18km/h | 22206m | 3.6m/s | 0°C | 0% | 0hPa | 0V | 00:00:00 | 00:00:00 | 00:00:00 | |
| RDZBGO | 2026-09-02 12:31:36 | 41.74031 | 9.39952 | 285° | 18km/h | 22128m | 5.7m/s | 0°C | 0% | 0hPa | 0V | 00:00:00 | 00:00:00 | 00:00:00 | |
| RDZ2B | 2026-09-02 12:31:32 | 41.74033 | 9.39981 | 275° | 13km/h | 22109m | 5.1m/s | 0°C | 0% | 0hPa | 0V | 00:00:00 | 00:00:00 | 00:00:00 | |
| RDZBGO | 2026-09-02 12:31:15 | 41.74046 | 9.40077 | 263° | 22km/h | 22028m | 4.9m/s | 0°C | 0% | 0hPa | 0V | 00:00:00 | 00:00:00 | 00:00:00 | |
| RDZ2B | 2026-09-02 12:31:12 | 41.74055 | 9.40097 | 227° | 22km/h | 22014m | 5.9m/s | 0°C | 0% | 0hPa | 0V | 00:00:00 | 00:00:00 | 00:00:00 | |
| RDZBGO | 2026-09-02 12:30:54 | 41.74106 | 9.40243 | 262° | 31km/h | 21926m | 4.0m/s | 0°C | 0% | 0hPa | 0V | 00:00:00 | 00:00:00 | 00:00:00 | |
| RDZ2B | 2026-09-02 12:30:51 | 41.74116 | 9.40266 | 216° | 24km/h | 21914m | 5.8m/s | 0°C | 0% | 0hPa | 0V | 00:00:00 | 00:00:00 | 00:00:00 | |
| RDZBGO | 2026-09-02 12:30:34 | 41.74201 | 9.40411 | 237° | 35km/h | 21834m | 3.6m/s | 0°C | 0% | 0hPa | 0V | 00:00:00 | 00:00:00 | 00:00:00 | |
| RDZ2B | 2026-09-02 12:30:31 | 41.74224 | 9.40433 | 205° | 26km/h | 21815m | 3.7m/s | 0°C | 0% | 0hPa | 0V | 00:00:00 | 00:00:00 | 00:00:00 | |
| RDZBGO | 2026-09-02 12:30:13 | 41.74323 | 9.40519 | 187° | 27km/h | 21732m | 4.1m/s | 0°C | 0% | 0hPa | 0V | 00:00:00 | 00:00:00 | 00:00:00 | |
| RDZ2B | 2026-09-02 12:30:10 | 41.74342 | 9.40522 | 204° | 18km/h | 21718m | 4.5m/s | 0°C | 0% | 0hPa | 0V | 00:00:00 | 00:00:00 | 00:00:00 | |
| RDZBGO | 2026-09-02 12:29:53 | 41.74419 | 9.40550 | 176° | 22km/h | 21639m | 4.0m/s | 0°C | 0% | 0hPa | 0V | 00:00:00 | 00:00:00 | 00:00:00 | |
| RDZ2B | 2026-09-02 12:29:49 | 41.74436 | 9.40545 | 191° | 7km/h | 21619m | 3.1m/s | 0°C | 0% | 0hPa | 0V | 00:00:00 | 00:00:00 | 00:00:00 | |
| RDZBGO | 2026-09-02 12:29:33 | 41.74493 | 9.40536 | 172° | 22km/h | 21541m | 3.4m/s | 0°C | 0% | 0hPa | 0V | 00:00:00 | 00:00:00 | 00:00:00 | |
| RDZ2B | 2026-09-02 12:29:28 | 41.74506 | 9.40522 | 108° | 16km/h | 21522m | 3.5m/s | 0°C | 0% | 0hPa | 0V | 00:00:00 | 00:00:00 | 00:00:00 | |
| RDZBGO | 2026-09-02 12:29:12 | 41.74531 | 9.40436 | 125° | 18km/h | 21444m | 5.7m/s | 0°C | 0% | 0hPa | 0V | 00:00:00 | 00:00:00 | 00:00:00 | |
| RDZ2B | 2026-09-02 12:29:08 | 41.74540 | 9.40422 | 94° | 9km/h | 21424m | 4.4m/s | 0°C | 0% | 0hPa | 0V | 00:00:00 | 00:00:00 | 00:00:00 | |
| RDZBGO | 2026-09-02 12:28:50 | 41.74553 | 9.40349 | 137° | 13km/h | 21339m | 3.1m/s | 0°C | 0% | 0hPa | 0V | 00:00:00 | 00:00:00 | 00:00:00 | |
| RDZ2B | 2026-09-02 12:28:47 | 41.74556 | 9.40337 | 81° | 18km/h | 21324m | 3.6m/s | 0°C | 0% | 0hPa | 0V | 00:00:00 | 00:00:00 | 00:00:00 | |
| RDZBGO | 2026-09-02 12:28:29 | 41.74556 | 9.40260 | 82° | 20km/h | 21235m | 4.9m/s | 0°C | 0% | 0hPa | 0V | 00:00:00 | 00:00:00 | 00:00:00 | |
| RDZ2B | 2026-09-02 12:28:26 | 41.74553 | 9.40240 | 82° | 13km/h | 21220m | 5.4m/s | 0°C | 0% | 0hPa | 0V | 00:00:00 | 00:00:00 | 00:00:00 | |
| RDZBGO | 2026-09-02 12:28:09 | 41.74546 | 9.40197 | 114° | 18km/h | 21141m | 4.9m/s | 0°C | 0% | 0hPa | 0V | 00:00:00 | 00:00:00 | 00:00:00 | |
| RDZ2B | 2026-09-02 12:28:06 | 41.74551 | 9.40180 | 107° | 7km/h | 21128m | 4.7m/s | 0°C | 0% | 0hPa | 0V | 00:00:00 | 00:00:00 | 00:00:00 | |
| RDZBGO | 2026-09-02 12:27:48 | 41.74521 | 9.40197 | 132° | 9km/h | 21045m | 4.4m/s | 0°C | 0% | 0hPa | 0V | 00:00:00 | 00:00:00 | 00:00:00 | |
| RDZ2B | 2026-09-02 12:27:45 | 41.74512 | 9.40188 | 352° | 22km/h | 21032m | 5.1m/s | 0°C | 0% | 0hPa | 0V | 00:00:00 | 00:00:00 | 00:00:00 | |
| RDZBGO | 2026-09-02 12:27:27 | 41.74491 | 9.40289 | 287° | 26km/h | 20943m | 3.8m/s | 0°C | 0% | 0hPa | 0V | 00:00:00 | 00:00:00 | 00:00:00 | |
| RDZ2B | 2026-09-02 12:27:25 | 41.74489 | 9.40306 | 269° | 26km/h | 20934m | 5.4m/s | 0°C | 0% | 0hPa | 0V | 00:00:00 | 00:00:00 | 00:00:00 | |
| RDZBGO | 2026-09-02 12:27:07 | 41.74480 | 9.40442 | 270° | 24km/h | 20854m | 3.8m/s | 0°C | 0% | 0hPa | 0V | 00:00:00 | 00:00:00 | 00:00:00 | |
| RDZ2B | 2026-09-02 12:27:04 | 41.74485 | 9.40467 | 235° | 20km/h | 20839m | 5.6m/s | 0°C | 0% | 0hPa | 0V | 00:00:00 | 00:00:00 | 00:00:00 | |
| RDZBGO | 2026-09-02 12:26:46 | 41.74518 | 9.40569 | 250° | 20km/h | 20756m | 3.1m/s | 0°C | 0% | 0hPa | 0V | 00:00:00 | 00:00:00 | 00:00:00 | |
| RDZ2B | 2026-09-02 12:26:43 | 41.74527 | 9.40580 | 202° | 16km/h | 20741m | 4.1m/s | 0°C | 0% | 0hPa | 0V | 00:00:00 | 00:00:00 | 00:00:00 | |
| RDZBGO | 2026-09-02 12:26:25 | 41.74558 | 9.40649 | 254° | 5km/h | 20659m | 5.2m/s | 0°C | 0% | 0hPa | 0V | 00:00:00 | 00:00:00 | 00:00:00 | |
| RDZ2B | 2026-09-02 12:26:22 | 41.74561 | 9.40650 | 253° | 5km/h | 20645m | 5.9m/s | 0°C | 0% | 0hPa | 0V | 00:00:00 | 00:00:00 | 00:00:00 | |
| RDZBGO | 2026-09-02 12:26:05 | 41.74562 | 9.40699 | 192° | 16km/h | 20569m | 5.1m/s | 0°C | 0% | 0hPa | 0V | 00:00:00 | 00:00:00 | 00:00:00 | |
| RDZ2B | 2026-09-02 12:26:01 | 41.74573 | 9.40700 | 283° | 9km/h | 20551m | 6.3m/s | 0°C | 0% | 0hPa | 0V | 00:00:00 | 00:00:00 | 00:00:00 | |
| RDZBGO | 2026-09-02 12:25:44 | 41.74617 | 9.40707 | 157° | 16km/h | 20473m | 2.8m/s | 0°C | 0% | 0hPa | 0V | 00:00:00 | 00:00:00 | 00:00:00 | |
| RDZBGO | 2026-09-02 12:25:23 | 41.74660 | 9.40704 | 120° | 7km/h | 20373m | 4.6m/s | 0°C | 0% | 0hPa | 0V | 00:00:00 | 00:00:00 | 00:00:00 | |
| RDZ2B | 2026-09-02 12:25:20 | 41.74669 | 9.40703 | 184° | 20km/h | 20359m | 4.3m/s | 0°C | 0% | 0hPa | 0V | 00:00:00 | 00:00:00 | 00:00:00 | |
| RDZBGO | 2026-09-02 12:25:03 | 41.74747 | 9.40669 | 138° | 16km/h | 20281m | 6.5m/s | 0°C | 0% | 0hPa | 0V | 00:00:00 | 00:00:00 | 00:00:00 | |
| RDZ2B | 2026-09-02 12:24:59 | 41.74756 | 9.40666 | 152° | 13km/h | 20260m | 5.4m/s | 0°C | 0% | 0hPa | 0V | 00:00:00 | 00:00:00 | 00:00:00 | |
| RDZBGO | 2026-09-02 12:24:43 | 41.74791 | 9.40588 | 312° | 4km/h | 20185m | 3.2m/s | 0°C | 0% | 0hPa | 0V | 00:00:00 | 00:00:00 | 00:00:00 | |
| RDZ2B | 2026-09-02 12:24:38 | 41.74802 | 9.40581 | 118° | 22km/h | 20167m | 2.7m/s | 0°C | 0% | 0hPa | 0V | 00:00:00 | 00:00:00 | 00:00:00 | |
| RDZBGO | 2026-09-02 12:24:23 | 41.74800 | 9.40535 | 132° | 16km/h | 20095m | 3.7m/s | 0°C | 0% | 0hPa | 0V | 00:00:00 | 00:00:00 | 00:00:00 | |
| RDZ2B | 2026-09-02 12:24:17 | 41.74805 | 9.40520 | 140° | 13km/h | 20071m | 5.1m/s | 0°C | 0% | 0hPa | 0V | 00:00:00 | 00:00:00 | 00:00:00 | |
| RDZBGO | 2026-09-02 12:24:01 | 41.74842 | 9.40499 | 110° | 4km/h | 19993m | 4.5m/s | 0°C | 0% | 0hPa | 0V | 00:00:00 | 00:00:00 | 00:00:00 | |
| RDZ2B | 2026-09-02 12:23:56 | 41.74861 | 9.40490 | 185° | 24km/h | 19969m | 6.5m/s | 0°C | 0% | 0hPa | 0V | 00:00:00 | 00:00:00 | 00:00:00 | |
| RDZBGO | 2026-09-02 12:23:41 | 41.74923 | 9.40497 | 217° | 16km/h | 19897m | 3.8m/s | 0°C | 0% | 0hPa | 0V | 00:00:00 | 00:00:00 | 00:00:00 | |
| RDZ2B | 2026-09-02 12:23:35 | 41.74956 | 9.40488 | 161° | 24km/h | 19869m | 4.6m/s | 0°C | 0% | 0hPa | 0V | 00:00:00 | 00:00:00 | 00:00:00 | |
| RDZBGO | 2026-09-02 12:23:20 | 41.75037 | 9.40478 | 185° | 20km/h | 19797m | 5.9m/s | 0°C | 0% | 0hPa | 0V | 00:00:00 | 00:00:00 | 00:00:00 | |
| RDZ2B | 2026-09-02 12:23:14 | 41.75056 | 9.40465 | 160° | 4km/h | 19766m | 5.1m/s | 0°C | 0% | 0hPa | 0V | 00:00:00 | 00:00:00 | 00:00:00 | |
| RDZBGO | 2026-09-02 12:22:59 | 41.75084 | 9.40440 | 83° | 4km/h | 19695m | 5.6m/s | 0°C | 0% | 0hPa | 0V | 00:00:00 | 00:00:00 | 00:00:00 | |
| RDZ2B | 2026-09-02 12:22:53 | 41.75087 | 9.40424 | 206° | 2km/h | 19665m | 4.5m/s | 0°C | 0% | 0hPa | 0V | 00:00:00 | 00:00:00 | 00:00:00 | |
| RDZBGO | 2026-09-02 12:22:38 | 41.75088 | 9.40389 | 101° | 18km/h | 19600m | 4.9m/s | 0°C | 0% | 0hPa | 0V | 00:00:00 | 00:00:00 | 00:00:00 | |
| RDZ2B | 2026-09-02 12:22:32 | 41.75093 | 9.40371 | 106° | 5km/h | 19572m | 5.4m/s | 0°C | 0% | 0hPa | 0V | 00:00:00 | 00:00:00 | 00:00:00 | |
| RDZBGO | 2026-09-02 12:22:18 | 41.75125 | 9.40317 | 139° | 15km/h | 19504m | 4.4m/s | 0°C | 0% | 0hPa | 0V | 00:00:00 | 00:00:00 | 00:00:00 | |
| RDZ2B | 2026-09-02 12:22:12 | 41.75147 | 9.40291 | 120° | 22km/h | 19476m | 4.6m/s | 0°C | 0% | 0hPa | 0V | 00:00:00 | 00:00:00 | 00:00:00 | |
| RDZBGO | 2026-09-02 12:21:57 | 41.75217 | 9.40195 | 115° | 26km/h | 19408m | 3.6m/s | 0°C | 0% | 0hPa | 0V | 00:00:00 | 00:00:00 | 00:00:00 | |
| RDZ2B | 2026-09-02 12:21:51 | 41.75240 | 9.40148 | 127° | 22km/h | 19383m | 3.3m/s | 0°C | 0% | 0hPa | 0V | 00:00:00 | 00:00:00 | 00:00:00 | |
| RDZBGO | 2026-09-02 12:21:37 | 41.75281 | 9.40046 | 129° | 24km/h | 19320m | 3.6m/s | 0°C | 0% | 0hPa | 0V | 00:00:00 | 00:00:00 | 00:00:00 | |
| RDZ2B | 2026-09-02 12:21:31 | 41.75289 | 9.40008 | 104° | 24km/h | 19291m | 3.5m/s | 0°C | 0% | 0hPa | 0V | 00:00:00 | 00:00:00 | 00:00:00 | |
| IW2NTF | 2026-09-02 12:21:19 | 41.75290 | 9.39929 | 90° | 5km/h | 19201m | 3.9m/s | 0°C | 0% | 0hPa | 0V | 00:00:00 | 00:00:00 | 00:00:00 | |
| RDZBGO | 2026-09-02 12:21:16 | 41.75291 | 9.39936 | 88° | 15km/h | 19221m | 4.9m/s | 0°C | 0% | 0hPa | 0V | 00:00:00 | 00:00:00 | 00:00:00 | |
| RDZ2B | 2026-09-02 12:21:10 | 41.75288 | 9.39925 | 21° | 13km/h | 19194m | 5.0m/s | 0°C | 0% | 0hPa | 0V | 00:00:00 | 00:00:00 | 00:00:00 | |
| RDZBGO | 2026-09-02 12:20:55 | 41.75241 | 9.39878 | 80° | 31km/h | 19132m | 4.3m/s | 0°C | 0% | 0hPa | 0V | 00:00:00 | 00:00:00 | 00:00:00 | |
| RDZ2B | 2026-09-02 12:20:49 | 41.75232 | 9.39861 | 315° | 7km/h | 19104m | 3.2m/s | 0°C | 0% | 0hPa | 0V | 00:00:00 | 00:00:00 | 00:00:00 | |
| RDZBGO | 2026-09-02 12:20:34 | 41.75229 | 9.39826 | 116° | 16km/h | 19033m | 5.0m/s | 0°C | 0% | 0hPa | 0V | 00:00:00 | 00:00:00 | 00:00:00 | |
| RDZ2B | 2026-09-02 12:20:28 | 41.75237 | 9.39800 | 156° | 13km/h | 19007m | 4.7m/s | 0°C | 0% | 0hPa | 0V | 00:00:00 | 00:00:00 | 00:00:00 | |
| RDZBGO | 2026-09-02 12:20:14 | 41.75274 | 9.39752 | 160° | 16km/h | 18939m | 5.3m/s | 0°C | 0% | 0hPa | 0V | 00:00:00 | 00:00:00 | 00:00:00 | |
| RDZ2B | 2026-09-02 12:20:08 | 41.75295 | 9.39733 | 149° | 20km/h | 18911m | 3.5m/s | 0°C | 0% | 0hPa | 0V | 00:00:00 | 00:00:00 | 00:00:00 | |
| RDZBGO | 2026-09-02 12:19:54 | 41.75357 | 9.39666 | 131° | 35km/h | 18849m | 5.7m/s | 0°C | 0% | 0hPa | 0V | 00:00:00 | 00:00:00 | 00:00:00 | |
| RDZ2B | 2026-09-02 12:19:47 | 41.75397 | 9.39620 | 123° | 29km/h | 18817m | 4.0m/s | 0°C | 0% | 0hPa | 0V | 00:00:00 | 00:00:00 | 00:00:00 | |
| RDZBGO | 2026-09-02 12:19:33 | 41.75465 | 9.39482 | 119° | 40km/h | 18759m | 7.9m/s | 0°C | 0% | 0hPa | 0V | 00:00:00 | 00:00:00 | 00:00:00 | |
| RDZ2B | 2026-09-02 12:19:27 | 41.75488 | 9.39415 | 108° | 46km/h | 18731m | 2.9m/s | 0°C | 0% | 0hPa | 0V | 00:00:00 | 00:00:00 | 00:00:00 | |
| RDZBGO | 2026-09-02 12:19:13 | 41.75563 | 9.39196 | 105° | 57km/h | 18666m | 3.1m/s | 0°C | 0% | 0hPa | 0V | 00:00:00 | 00:00:00 | 00:00:00 | |
| RDZ2B | 2026-09-02 12:19:06 | 41.75589 | 9.39066 | 104° | 58km/h | 18635m | 6.4m/s | 0°C | 0% | 0hPa | 0V | 00:00:00 | 00:00:00 | 00:00:00 | |
| RDZBGO | 2026-09-02 12:18:52 | 41.75630 | 9.38832 | 105° | 47km/h | 18567m | 3.5m/s | 0°C | 0% | 0hPa | 0V | 00:00:00 | 00:00:00 | 00:00:00 | |
| RDZ2B | 2026-09-02 12:18:44 | 41.75647 | 9.38709 | 95° | 49km/h | 18529m | 5.4m/s | 0°C | 0% | 0hPa | 0V | 00:00:00 | 00:00:00 | 00:00:00 | |
| RDZBGO | 2026-09-02 12:18:32 | 41.75669 | 9.38524 | 100° | 49km/h | 18475m | 6.2m/s | 0°C | 0% | 0hPa | 0V | 00:00:00 | 00:00:00 | 00:00:00 | |
| RDZ2B | 2026-09-02 12:18:21 | 41.75674 | 9.38356 | 82° | 49km/h | 18426m | 4.2m/s | 0°C | 0% | 0hPa | 0V | 00:00:00 | 00:00:00 | 00:00:00 | |
| RDZBGO | 2026-09-02 12:18:11 | 41.75661 | 9.38203 | 89° | 38km/h | 18379m | 7.6m/s | 0°C | 0% | 0hPa | 0V | 00:00:00 | 00:00:00 | 00:00:00 | |
| RDZ2B | 2026-09-02 12:17:57 | 41.75646 | 9.38022 | 83° | 20km/h | 18313m | 4.3m/s | 0°C | 0% | 0hPa | 0V | 00:00:00 | 00:00:00 | 00:00:00 | |
| RDZBGO | 2026-09-02 12:17:51 | 41.75643 | 9.37956 | 92° | 26km/h | 18281m | 4.4m/s | 0°C | 0% | 0hPa | 0V | 00:00:00 | 00:00:00 | 00:00:00 | |
| RDZ2B | 2026-09-02 12:17:36 | 41.75653 | 9.37830 | 85° | 18km/h | 18219m | 3.7m/s | 0°C | 0% | 0hPa | 0V | 00:00:00 | 00:00:00 | 00:00:00 | |
| RDZBGO | 2026-09-02 12:17:30 | 41.75644 | 9.37769 | 91° | 33km/h | 18189m | 5.8m/s | 0°C | 0% | 0hPa | 0V | 00:00:00 | 00:00:00 | 00:00:00 | |
| RDZ2B | 2026-09-02 12:17:16 | 41.75643 | 9.37657 | 98° | 15km/h | 18135m | 4.3m/s | 0°C | 0% | 0hPa | 0V | 00:00:00 | 00:00:00 | 00:00:00 | |
| RDZBGO | 2026-09-02 12:17:09 | 41.75641 | 9.37593 | 108° | 24km/h | 18102m | 3.5m/s | 0°C | 0% | 0hPa | 0V | 00:00:00 | 00:00:00 | 00:00:00 | |
| RDZ2B | 2026-09-02 12:16:55 | 41.75606 | 9.37494 | 64° | 29km/h | 18036m | 3.8m/s | 0°C | 0% | 0hPa | 0V | 00:00:00 | 00:00:00 | 00:00:00 | |
| RDZBGO | 2026-09-02 12:16:48 | 41.75593 | 9.37467 | 181° | 11km/h | 18003m | 2.7m/s | 0°C | 0% | 0hPa | 0V | 00:00:00 | 00:00:00 | 00:00:00 | |
| RDZ2B | 2026-09-02 12:16:34 | 41.75565 | 9.37436 | 52° | 26km/h | 17942m | 6.7m/s | 0°C | 0% | 0hPa | 0V | 00:00:00 | 00:00:00 | 00:00:00 | |
| RDZBGO | 2026-09-02 12:16:27 | 41.75553 | 9.37427 | 228° | 20km/h | 17909m | 4.2m/s | 0°C | 0% | 0hPa | 0V | 00:00:00 | 00:00:00 | 00:00:00 | |
| RDZ2B | 2026-09-02 12:16:14 | 41.75540 | 9.37440 | 268° | 9km/h | 17849m | 5.5m/s | 0°C | 0% | 0hPa | 0V | 00:00:00 | 00:00:00 | 00:00:00 | |
| RDZBGO | 2026-09-02 12:16:07 | 41.75532 | 9.37444 | 263° | 22km/h | 17812m | 5.6m/s | 0°C | 0% | 0hPa | 0V | 00:00:00 | 00:00:00 | 00:00:00 | |
| RDZ2B | 2026-09-02 12:15:54 | 41.75547 | 9.37461 | 32° | 4km/h | 17725m | 6.7m/s | 0°C | 0% | 0hPa | 0V | 00:00:00 | 00:00:00 | 00:00:00 | |
| RDZBGO | 2026-09-02 12:15:47 | 41.75504 | 9.37465 | 24° | 37km/h | 17679m | 4.4m/s | 0°C | 0% | 0hPa | 0V | 00:00:00 | 00:00:00 | 00:00:00 | |
| RDZ2B | 2026-09-02 12:15:33 | 41.75502 | 9.37494 | 321° | 22km/h | 17579m | 5.6m/s | 0°C | 0% | 0hPa | 0V | 00:00:00 | 00:00:00 | 00:00:00 | |
| RDZBGO | 2026-09-02 12:15:25 | 41.75506 | 9.37448 | 72° | 31km/h | 17505m | 7.9m/s | 0°C | 0% | 0hPa | 0V | 00:00:00 | 00:00:00 | 00:00:00 | |
| RDZ2B | 2026-09-02 12:15:13 | 41.75487 | 9.37369 | 73° | 27km/h | 17403m | 7.6m/s | 0°C | 0% | 0hPa | 0V | 00:00:00 | 00:00:00 | 00:00:00 | |
| RDZBGO | 2026-09-02 12:15:04 | 41.75494 | 9.37332 | 118° | 27km/h | 17340m | 6.6m/s | 0°C | 0% | 0hPa | 0V | 00:00:00 | 00:00:00 | 00:00:00 | |
| RDZ2B | 2026-09-02 12:14:52 | 41.75511 | 9.37289 | 45° | 22km/h | 17253m | 8.9m/s | 0°C | 0% | 0hPa | 0V | 00:00:00 | 00:00:00 | 00:00:00 | |
| RDZBGO | 2026-09-02 12:14:43 | 41.75519 | 9.37248 | 36° | 20km/h | 17190m | 5.4m/s | 0°C | 0% | 0hPa | 0V | 00:00:00 | 00:00:00 | 00:00:00 | |
| RDZ2B | 2026-09-02 12:14:31 | 41.75558 | 9.37177 | 102° | 29km/h | 17121m | 7.8m/s | 0°C | 0% | 0hPa | 0V | 00:00:00 | 00:00:00 | 00:00:00 | |
| RDZBGO | 2026-09-02 12:14:23 | 41.75580 | 9.37067 | 104° | 46km/h | 17084m | 4.8m/s | 0°C | 0% | 0hPa | 0V | 00:00:00 | 00:00:00 | 00:00:00 | |
| RDZ2B | 2026-09-02 12:14:11 | 41.75645 | 9.36882 | 112° | 55km/h | 17030m | 6.9m/s | 0°C | 0% | 0hPa | 0V | 00:00:00 | 00:00:00 | 00:00:00 | |
| RDZBGO | 2026-09-02 12:14:02 | 41.75697 | 9.36715 | 117° | 58km/h | 16982m | 6.8m/s | 0°C | 0% | 0hPa | 0V | 00:00:00 | 00:00:00 | 00:00:00 | |
| RDZ2B | 2026-09-02 12:13:51 | 41.75765 | 9.36520 | 112° | 62km/h | 16930m | 3.8m/s | 0°C | 0% | 0hPa | 0V | 00:00:00 | 00:00:00 | 00:00:00 | |
| RDZBGO | 2026-09-02 12:13:41 | 41.75823 | 9.36329 | 105° | 58km/h | 16888m | 4.3m/s | 0°C | 0% | 0hPa | 0V | 00:00:00 | 00:00:00 | 00:00:00 | |
| RDZ2B | 2026-09-02 12:13:30 | 41.75876 | 9.36111 | 106° | 60km/h | 16844m | 4.7m/s | 0°C | 0% | 0hPa | 0V | 00:00:00 | 00:00:00 | 00:00:00 | |
| RDZBGO | 2026-09-02 12:13:20 | 41.75923 | 9.35908 | 104° | 71km/h | 16807m | 3.7m/s | 0°C | 0% | 0hPa | 0V | 00:00:00 | 00:00:00 | 00:00:00 | |
| RDZ2B | 2026-09-02 12:13:09 | 41.75962 | 9.35670 | 106° | 62km/h | 16766m | 4.4m/s | 0°C | 0% | 0hPa | 0V | 00:00:00 | 00:00:00 | 00:00:00 | |
| RDZBGO | 2026-09-02 12:13:00 | 41.76003 | 9.35462 | 102° | 66km/h | 16733m | 2.3m/s | 0°C | 0% | 0hPa | 0V | 00:00:00 | 00:00:00 | 00:00:00 | |
| RDZ2B | 2026-09-02 12:12:49 | 41.76047 | 9.35214 | 105° | 68km/h | 16695m | 3.3m/s | 0°C | 0% | 0hPa | 0V | 00:00:00 | 00:00:00 | 00:00:00 | |
| RDZBGO | 2026-09-02 12:12:38 | 41.76078 | 9.34950 | 100° | 73km/h | 16657m | 2.8m/s | 0°C | 0% | 0hPa | 0V | 00:00:00 | 00:00:00 | 00:00:00 | |
| RDZ2B | 2026-09-02 12:12:27 | 41.76099 | 9.34690 | 100° | 71km/h | 16620m | 3.8m/s | 0°C | 0% | 0hPa | 0V | 00:00:00 | 00:00:00 | 00:00:00 | |
| RDZBGO | 2026-09-02 12:12:17 | 41.76125 | 9.34466 | 99° | 64km/h | 16584m | 2.5m/s | 0°C | 0% | 0hPa | 0V | 00:00:00 | 00:00:00 | 00:00:00 | |
| RDZ2B | 2026-09-02 12:12:05 | 41.76148 | 9.34184 | 103° | 62km/h | 16543m | 4.2m/s | 0°C | 0% | 0hPa | 0V | 00:00:00 | 00:00:00 | 00:00:00 | |
| RDZBGO | 2026-09-02 12:11:56 | 41.76181 | 9.33975 | 110° | 69km/h | 16506m | 3.9m/s | 0°C | 0% | 0hPa | 0V | 00:00:00 | 00:00:00 | 00:00:00 | |
| RDZ2B | 2026-09-02 12:11:44 | 41.76236 | 9.33702 | 111° | 68km/h | 16463m | 4.9m/s | 0°C | 0% | 0hPa | 0V | 00:00:00 | 00:00:00 | 00:00:00 | |
| RDZBGO | 2026-09-02 12:11:35 | 41.76279 | 9.33484 | 110° | 78km/h | 16429m | 5.2m/s | 0°C | 0% | 0hPa | 0V | 00:00:00 | 00:00:00 | 00:00:00 | |
| RDZ2B | 2026-09-02 12:11:22 | 41.76345 | 9.33168 | 107° | 75km/h | 16377m | 4.5m/s | 0°C | 0% | 0hPa | 0V | 00:00:00 | 00:00:00 | 00:00:00 | |
| RDZBGO | 2026-09-02 12:11:15 | 41.76368 | 9.33001 | 99° | 69km/h | 16345m | 5.7m/s | 0°C | 0% | 0hPa | 0V | 00:00:00 | 00:00:00 | 00:00:00 | |
| RDZ2B | 2026-09-02 12:11:02 | 41.76406 | 9.32691 | 106° | 66km/h | 16289m | 3.8m/s | 0°C | 0% | 0hPa | 0V | 00:00:00 | 00:00:00 | 00:00:00 | |
| RDZBGO | 2026-09-02 12:10:54 | 41.76443 | 9.32494 | 106° | 78km/h | 16257m | 4.7m/s | 0°C | 0% | 0hPa | 0V | 00:00:00 | 00:00:00 | 00:00:00 | |
| RDZ2B | 2026-09-02 12:10:34 | 41.76508 | 9.31973 | 104° | 68km/h | 16174m | 5.4m/s | 0°C | 0% | 0hPa | 0V | 00:00:00 | 00:00:00 | 00:00:00 | |
| RDZBGO | 2026-09-02 12:10:33 | 41.76510 | 9.31951 | 100° | 66km/h | 16170m | 2.7m/s | 0°C | 0% | 0hPa | 0V | 00:00:00 | 00:00:00 | 00:00:00 | |
| RDZBGO | 2026-09-02 12:10:12 | 41.76562 | 9.31384 | 102° | 77km/h | 16082m | 5.7m/s | 0°C | 0% | 0hPa | 0V | 00:00:00 | 00:00:00 | 00:00:00 | |
| RDZ2B | 2026-09-02 12:10:11 | 41.76566 | 9.31359 | 103° | 77km/h | 16078m | 3.9m/s | 0°C | 0% | 0hPa | 0V | 00:00:00 | 00:00:00 | 00:00:00 | |
| RDZBGO | 2026-09-02 12:09:52 | 41.76598 | 9.30881 | 93° | 60km/h | 15991m | 6.4m/s | 0°C | 0% | 0hPa | 0V | 00:00:00 | 00:00:00 | 00:00:00 | |
| RDZBGO | 2026-09-02 12:09:32 | 41.76629 | 9.30418 | 83° | 64km/h | 15897m | 4.4m/s | 0°C | 0% | 0hPa | 0V | 00:00:00 | 00:00:00 | 00:00:00 | |
| RDZBGO | 2026-09-02 12:09:12 | 41.76712 | 9.29951 | 112° | 80km/h | 15803m | 4.5m/s | 0°C | 0% | 0hPa | 0V | 00:00:00 | 00:00:00 | 00:00:00 | |
| RDZBGO | 2026-09-02 12:08:51 | 41.76809 | 9.29464 | 104° | 73km/h | 15708m | 4.8m/s | 0°C | 0% | 0hPa | 0V | 00:00:00 | 00:00:00 | 00:00:00 | |
| RDZBGO | 2026-09-02 12:08:31 | 41.76877 | 9.28986 | 98° | 68km/h | 15614m | 5.7m/s | 0°C | 0% | 0hPa | 0V | 00:00:00 | 00:00:00 | 00:00:00 | |
| RDZBGO | 2026-09-02 12:08:10 | 41.76907 | 9.28479 | 99° | 66km/h | 15522m | 5.1m/s | 0°C | 0% | 0hPa | 0V | 00:00:00 | 00:00:00 | 00:00:00 | |
| RDZBGO | 2026-09-02 12:07:49 | 41.76942 | 9.27937 | 97° | 77km/h | 15425m | 5.0m/s | 0°C | 0% | 0hPa | 0V | 00:00:00 | 00:00:00 | 00:00:00 | |
| RDZBGO | 2026-09-02 12:07:28 | 41.76994 | 9.27396 | 100° | 75km/h | 15325m | 3.7m/s | 0°C | 0% | 0hPa | 0V | 00:00:00 | 00:00:00 | 00:00:00 | |
| RDZBGO | 2026-09-02 12:07:06 | 41.77017 | 9.26829 | 89° | 82km/h | 15219m | 5.5m/s | 0°C | 0% | 0hPa | 0V | 00:00:00 | 00:00:00 | 00:00:00 | |
| RDZBGO | 2026-09-02 12:06:45 | 41.77008 | 9.26259 | 77° | 77km/h | 15114m | 3.8m/s | 0°C | 0% | 0hPa | 0V | 00:00:00 | 00:00:00 | 00:00:00 | |
| RDZBGO | 2026-09-02 12:06:24 | 41.76968 | 9.25718 | 88° | 73km/h | 15003m | 5.1m/s | 0°C | 0% | 0hPa | 0V | 00:00:00 | 00:00:00 | 00:00:00 | |
| RDZBGO | 2026-09-02 12:06:02 | 41.76907 | 9.25255 | 85° | 69km/h | 14894m | 4.3m/s | 0°C | 0% | 0hPa | 0V | 00:00:00 | 00:00:00 | 00:00:00 | |
| RDZBGO | 2026-09-02 12:05:42 | 41.76849 | 9.24851 | 85° | 64km/h | 14782m | 6.5m/s | 0°C | 0% | 0hPa | 0V | 00:00:00 | 00:00:00 | 00:00:00 | |
| RDZBGO | 2026-09-02 12:05:20 | 41.76795 | 9.24435 | 92° | 53km/h | 14662m | 6.2m/s | 0°C | 0% | 0hPa | 0V | 00:00:00 | 00:00:00 | 00:00:00 | |
| RDZBGO | 2026-09-02 12:05:00 | 41.76809 | 9.24047 | 90° | 60km/h | 14566m | 5.4m/s | 0°C | 0% | 0hPa | 0V | 00:00:00 | 00:00:00 | 00:00:00 | |
| RDZBGO | 2026-09-02 12:04:38 | 41.76834 | 9.23543 | 94° | 64km/h | 14470m | 5.9m/s | 0°C | 0% | 0hPa | 0V | 00:00:00 | 00:00:00 | 00:00:00 | |
| RDZBGO | 2026-09-02 12:04:16 | 41.76859 | 9.23039 | 85° | 71km/h | 14377m | 4.7m/s | 0°C | 0% | 0hPa | 0V | 00:00:00 | 00:00:00 | 00:00:00 | |
| RDZBGO | 2026-09-02 12:03:56 | 41.76851 | 9.22597 | 81° | 62km/h | 14297m | 4.0m/s | 0°C | 0% | 0hPa | 0V | 00:00:00 | 00:00:00 | 00:00:00 | |
| RDZBGO | 2026-09-02 12:03:35 | 41.76851 | 9.22163 | 98° | 66km/h | 14209m | 4.1m/s | 0°C | 0% | 0hPa | 0V | 00:00:00 | 00:00:00 | 00:00:00 | |
| RDZBGO | 2026-09-02 12:03:15 | 41.76887 | 9.21753 | 103° | 57km/h | 14124m | 5.7m/s | 0°C | 0% | 0hPa | 0V | 00:00:00 | 00:00:00 | 00:00:00 | |
| RDZBGO | 2026-09-02 12:02:54 | 41.76945 | 9.21374 | 114° | 49km/h | 14038m | 4.1m/s | 0°C | 0% | 0hPa | 0V | 00:00:00 | 00:00:00 | 00:00:00 | |
| RDZBGO | 2026-09-02 12:02:35 | 41.76994 | 9.21016 | 112° | 58km/h | 13950m | 4.1m/s | 0°C | 0% | 0hPa | 0V | 00:00:00 | 00:00:00 | 00:00:00 | |
| RDZBGO | 2026-09-02 12:02:11 | 41.77068 | 9.20598 | 107° | 49km/h | 13851m | 5.5m/s | 0°C | 0% | 0hPa | 0V | 00:00:00 | 00:00:00 | 00:00:00 | |
| RDZBGO | 2026-09-02 12:01:51 | 41.77148 | 9.20227 | 110° | 62km/h | 13767m | 6.7m/s | 0°C | 0% | 0hPa | 0V | 00:00:00 | 00:00:00 | 00:00:00 | |
| RDZBGO | 2026-09-02 12:01:31 | 41.77260 | 9.19807 | 105° | 69km/h | 13683m | 5.2m/s | 0°C | 0% | 0hPa | 0V | 00:00:00 | 00:00:00 | 00:00:00 | |
| RDZBGO | 2026-09-02 12:01:10 | 41.77379 | 9.19357 | 110° | 62km/h | 13598m | 5.2m/s | 0°C | 0% | 0hPa | 0V | 00:00:00 | 00:00:00 | 00:00:00 | |
| RDZBGO | 2026-09-02 12:00:50 | 41.77498 | 9.18956 | 108° | 60km/h | 13511m | 2.2m/s | 0°C | 0% | 0hPa | 0V | 00:00:00 | 00:00:00 | 00:00:00 | |
| RDZBGO | 2026-09-02 12:00:29 | 41.77629 | 9.18590 | 121° | 66km/h | 13413m | 4.4m/s | 0°C | 0% | 0hPa | 0V | 00:00:00 | 00:00:00 | 00:00:00 | |
| RDZBGO | 2026-09-02 12:00:06 | 41.77805 | 9.18161 | 125° | 68km/h | 13308m | 5.7m/s | 0°C | 0% | 0hPa | 0V | 00:00:00 | 00:00:00 | 00:00:00 | |
| RDZBGO | 2026-09-02 11:59:46 | 41.78003 | 9.17763 | 123° | 68km/h | 13230m | 4.6m/s | 0°C | 0% | 0hPa | 0V | 00:00:00 | 00:00:00 | 00:00:00 | |
| RDZBGO | 2026-09-02 11:59:20 | 41.78245 | 9.17239 | 118° | 77km/h | 13130m | 3.5m/s | 0°C | 0% | 0hPa | 0V | 00:00:00 | 00:00:00 | 00:00:00 | |
| RDZBGO | 2026-09-02 11:58:58 | 41.78439 | 9.16807 | 120° | 62km/h | 13034m | 3.7m/s | 0°C | 0% | 0hPa | 0V | 00:00:00 | 00:00:00 | 00:00:00 | |
| RDZBGO | 2026-09-02 11:58:36 | 41.78597 | 9.16373 | 111° | 68km/h | 12935m | 4.4m/s | 0°C | 0% | 0hPa | 0V | 00:00:00 | 00:00:00 | 00:00:00 | |
| RDZBGO | 2026-09-02 11:58:14 | 41.78708 | 9.15958 | 106° | 53km/h | 12842m | 4.3m/s | 0°C | 0% | 0hPa | 0V | 00:00:00 | 00:00:00 | 00:00:00 | |
| RDZBGO | 2026-09-02 11:57:54 | 41.78849 | 9.15568 | 129° | 88km/h | 12728m | 7.0m/s | 0°C | 0% | 0hPa | 0V | 00:00:00 | 00:00:00 | 00:00:00 | |
| RDZBGO | 2026-09-02 11:57:32 | 41.79134 | 9.15055 | 128° | 89km/h | 12611m | 5.5m/s | 0°C | 0% | 0hPa | 0V | 00:00:00 | 00:00:00 | 00:00:00 | |
| RDZBGO | 2026-09-02 11:57:11 | 41.79432 | 9.14564 | 135° | 86km/h | 12515m | 6.1m/s | 0°C | 0% | 0hPa | 0V | 00:00:00 | 00:00:00 | 00:00:00 | |
| RDZBGO | 2026-09-02 11:56:50 | 41.79740 | 9.14114 | 136° | 89km/h | 12423m | 4.2m/s | 0°C | 0% | 0hPa | 0V | 00:00:00 | 00:00:00 | 00:00:00 | |
| RDZBGO | 2026-09-02 11:56:29 | 41.80058 | 9.13724 | 131° | 73km/h | 12337m | 4.1m/s | 0°C | 0% | 0hPa | 0V | 00:00:00 | 00:00:00 | 00:00:00 | |
| RDZBGO | 2026-09-02 11:55:24 | 41.80868 | 9.12243 | 125° | 86km/h | 12091m | 4.2m/s | 0°C | 0% | 0hPa | 0V | 00:00:00 | 00:00:00 | 00:00:00 | |
| RDZBGO | 2026-09-02 11:53:57 | 41.81765 | 9.10627 | 121° | 66km/h | 11743m | 7.4m/s | 0°C | 0% | 0hPa | 0V | 00:00:00 | 00:00:00 | 00:00:00 | |
| RDZBGO | 2026-09-02 11:52:15 | 41.82496 | 9.08982 | 120° | 58km/h | 11265m | 3.7m/s | 0°C | 0% | 0hPa | 0V | 00:00:00 | 00:00:00 | 00:00:00 | |
| RDZBGO | 2026-09-02 11:51:53 | 41.82732 | 9.08683 | 142° | 57km/h | 11174m | 3.8m/s | 0°C | 0% | 0hPa | 0V | 00:00:00 | 00:00:00 | 00:00:00 | |
| RDZBGO | 2026-09-02 11:51:29 | 41.83024 | 9.08367 | 143° | 58km/h | 11086m | 4.5m/s | 0°C | 0% | 0hPa | 0V | 00:00:00 | 00:00:00 | 00:00:00 | |
| RDZBGO | 2026-09-02 11:51:09 | 41.83280 | 9.08099 | 142° | 64km/h | 11011m | 3.5m/s | 0°C | 0% | 0hPa | 0V | 00:00:00 | 00:00:00 | 00:00:00 | |
| RDZBGO | 2026-09-02 11:50:49 | 41.83536 | 9.07825 | 147° | 66km/h | 10932m | 5.7m/s | 0°C | 0% | 0hPa | 0V | 00:00:00 | 00:00:00 | 00:00:00 | |
| RDZBGO | 2026-09-02 11:50:28 | 41.83817 | 9.07527 | 144° | 66km/h | 10854m | 6.6m/s | 0°C | 0% | 0hPa | 0V | 00:00:00 | 00:00:00 | 00:00:00 | |
| RDZBGO | 2026-09-02 11:50:08 | 41.84092 | 9.07240 | 141° | 64km/h | 10775m | 5.2m/s | 0°C | 0% | 0hPa | 0V | 00:00:00 | 00:00:00 | 00:00:00 | |
| RDZBGO | 2026-09-02 11:49:34 | 41.84520 | 9.06685 | 130° | 60km/h | 10628m | 5.3m/s | 0°C | 0% | 0hPa | 0V | 00:00:00 | 00:00:00 | 00:00:00 | |
| RDZBGO | 2026-09-02 11:48:59 | 41.84823 | 9.06030 | 126° | 47km/h | 10434m | 4.2m/s | 0°C | 0% | 0hPa | 0V | 00:00:00 | 00:00:00 | 00:00:00 | |
| RDZ2B | 2026-09-02 11:48:40 | 41.84967 | 9.05721 | 128° | 55km/h | 10346m | 3.7m/s | 0°C | 0% | 0hPa | 0V | 00:00:00 | 00:00:00 | 00:00:00 | |
| RDZBGO | 2026-09-02 11:48:31 | 41.85029 | 9.05558 | 124° | 51km/h | 10305m | 3.9m/s | 0°C | 0% | 0hPa | 0V | 00:00:00 | 00:00:00 | 00:00:00 | |
| RDZ2B | 2026-09-02 11:48:19 | 41.85107 | 9.05371 | 115° | 66km/h | 10252m | 6.2m/s | 0°C | 0% | 0hPa | 0V | 00:00:00 | 00:00:00 | 00:00:00 | |
| RDZBGO | 2026-09-02 11:48:00 | 41.85248 | 9.05042 | 118° | 53km/h | 10153m | 3.2m/s | 0°C | 0% | 0hPa | 0V | 00:00:00 | 00:00:00 | 00:00:00 | |
| RDZ2B | 2026-09-02 11:47:58 | 41.85261 | 9.05007 | 118° | 64km/h | 10144m | 4.6m/s | 0°C | 0% | 0hPa | 0V | 00:00:00 | 00:00:00 | 00:00:00 | |
| RDZ2B | 2026-09-02 11:47:26 | 41.85460 | 9.04426 | 110° | 64km/h | 9997m | 4.5m/s | 0°C | 0% | 0hPa | 0V | 00:00:00 | 00:00:00 | 00:00:00 | |
| RDZ2B | 2026-09-02 11:47:04 | 41.85589 | 9.04044 | 112° | 64km/h | 9911m | 3.2m/s | 0°C | 0% | 0hPa | 0V | 00:00:00 | 00:00:00 | 00:00:00 | |
| RDZBGO | 2026-09-02 11:47:01 | 41.85609 | 9.03994 | 125° | 47km/h | 9898m | 4.8m/s | 0°C | 0% | 0hPa | 0V | 00:00:00 | 00:00:00 | 00:00:00 | |
| RDZ2B | 2026-09-02 11:46:43 | 41.85723 | 9.03692 | 127° | 57km/h | 9816m | 5.2m/s | 0°C | 0% | 0hPa | 0V | 00:00:00 | 00:00:00 | 00:00:00 | |
| RDZBGO | 2026-09-02 11:46:40 | 41.85747 | 9.03647 | 117° | 51km/h | 9800m | 3.6m/s | 0°C | 0% | 0hPa | 0V | 00:00:00 | 00:00:00 | 00:00:00 | |
| RDZ2B | 2026-09-02 11:46:22 | 41.85829 | 9.03325 | 112° | 46km/h | 9715m | 5.1m/s | 0°C | 0% | 0hPa | 0V | 00:00:00 | 00:00:00 | 00:00:00 | |
| RDZBGO | 2026-09-02 11:46:19 | 41.85845 | 9.03267 | 111° | 73km/h | 9701m | 5.5m/s | 0°C | 0% | 0hPa | 0V | 00:00:00 | 00:00:00 | 00:00:00 | |
| RDZ2B | 2026-09-02 11:46:02 | 41.85947 | 9.02962 | 116° | 53km/h | 9613m | 4.5m/s | 0°C | 0% | 0hPa | 0V | 00:00:00 | 00:00:00 | 00:00:00 | |
| RDZBGO | 2026-09-02 11:45:58 | 41.85975 | 9.02893 | 121° | 60km/h | 9591m | 6.1m/s | 0°C | 0% | 0hPa | 0V | 00:00:00 | 00:00:00 | 00:00:00 | |
| RDZ2B | 2026-09-02 11:45:39 | 41.86065 | 9.02564 | 115° | 60km/h | 9497m | 4.4m/s | 0°C | 0% | 0hPa | 0V | 00:00:00 | 00:00:00 | 00:00:00 | |
| RDZBGO | 2026-09-02 11:45:37 | 41.86075 | 9.02530 | 111° | 51km/h | 9486m | 5.7m/s | 0°C | 0% | 0hPa | 0V | 00:00:00 | 00:00:00 | 00:00:00 | |
| RDZBGO | 2026-09-02 11:45:18 | 41.86195 | 9.02179 | 109° | 64km/h | 9385m | 5.6m/s | 0°C | 0% | 0hPa | 0V | 00:00:00 | 00:00:00 | 00:00:00 | |
| RDZBGO | 2026-09-02 11:44:57 | 41.86314 | 9.01779 | 108° | 77km/h | 9266m | 3.0m/s | 0°C | 0% | 0hPa | 0V | 00:00:00 | 00:00:00 | 00:00:00 | |
| RDZ2B | 2026-09-02 11:44:56 | 41.86314 | 9.01779 | 108° | 77km/h | 9266m | 3.0m/s | 0°C | 0% | 0hPa | 0V | 00:00:00 | 00:00:00 | 00:00:00 | |
| RDZ2B | 2026-09-02 11:44:35 | 41.86419 | 9.01398 | 129° | 60km/h | 9155m | 6.7m/s | 0°C | 0% | 0hPa | 0V | 00:00:00 | 00:00:00 | 00:00:00 | |
| RDZBGO | 2026-09-02 11:44:15 | 41.86551 | 9.01033 | 115° | 53km/h | 9041m | 5.2m/s | 0°C | 0% | 0hPa | 0V | 00:00:00 | 00:00:00 | 00:00:00 | |
| RDZ2B | 2026-09-02 11:44:14 | 41.86562 | 9.00996 | 109° | 66km/h | 9029m | 7.5m/s | 0°C | 0% | 0hPa | 0V | 00:00:00 | 00:00:00 | 00:00:00 | |
| RDZBGO | 2026-09-02 11:43:54 | 41.86677 | 9.00636 | 119° | 66km/h | 8920m | 4.1m/s | 0°C | 0% | 0hPa | 0V | 00:00:00 | 00:00:00 | 00:00:00 | |
| RDZ2B | 2026-09-02 11:43:51 | 41.86695 | 9.00579 | 106° | 57km/h | 8906m | 4.7m/s | 0°C | 0% | 0hPa | 0V | 00:00:00 | 00:00:00 | 00:00:00 | |
| RDZBGO | 2026-09-02 11:43:34 | 41.86821 | 9.00260 | 120° | 57km/h | 8807m | 5.8m/s | 0°C | 0% | 0hPa | 0V | 00:00:00 | 00:00:00 | 00:00:00 | |
| RDZ2B | 2026-09-02 11:43:27 | 41.86874 | 9.00133 | 127° | 64km/h | 8771m | 4.8m/s | 0°C | 0% | 0hPa | 0V | 00:00:00 | 00:00:00 | 00:00:00 | |
| RDZBGO | 2026-09-02 11:43:13 | 41.86983 | 8.99868 | 113° | 77km/h | 8694m | 3.0m/s | 0°C | 0% | 0hPa | 0V | 00:00:00 | 00:00:00 | 00:00:00 | |
| RDZ2B | 2026-09-02 11:43:03 | 41.87045 | 8.99672 | 107° | 60km/h | 8640m | 4.1m/s | 0°C | 0% | 0hPa | 0V | 00:00:00 | 00:00:00 | 00:00:00 | |
| RDZBGO | 2026-09-02 11:42:52 | 41.87130 | 8.99463 | 113° | 73km/h | 8585m | 4.4m/s | 0°C | 0% | 0hPa | 0V | 00:00:00 | 00:00:00 | 00:00:00 | |
| RDZ2B | 2026-09-02 11:42:38 | 41.87251 | 8.99166 | 120° | 68km/h | 8521m | 5.9m/s | 0°C | 0% | 0hPa | 0V | 00:00:00 | 00:00:00 | 00:00:00 | |
| RDZBGO | 2026-09-02 11:42:32 | 41.87301 | 8.99063 | 131° | 71km/h | 8487m | 4.0m/s | 0°C | 0% | 0hPa | 0V | 00:00:00 | 00:00:00 | 00:00:00 | |
| RDZ2B | 2026-09-02 11:42:15 | 41.87466 | 8.98732 | 123° | 75km/h | 8386m | 6.2m/s | 0°C | 0% | 0hPa | 0V | 00:00:00 | 00:00:00 | 00:00:00 | |
| RDZBGO | 2026-09-02 11:42:11 | 41.87508 | 8.98650 | 126° | 73km/h | 8360m | 6.2m/s | 0°C | 0% | 0hPa | 0V | 00:00:00 | 00:00:00 | 00:00:00 | |
| RDZ2B | 2026-09-02 11:41:54 | 41.87650 | 8.98333 | 124° | 58km/h | 8261m | 4.3m/s | 0°C | 0% | 0hPa | 0V | 00:00:00 | 00:00:00 | 00:00:00 | |
| RDZBGO | 2026-09-02 11:41:51 | 41.87689 | 8.98266 | 128° | 62km/h | 8239m | 6.0m/s | 0°C | 0% | 0hPa | 0V | 00:00:00 | 00:00:00 | 00:00:00 | |
| RDZBGO | 2026-09-02 11:41:30 | 41.87877 | 8.97910 | 129° | 58km/h | 8129m | 6.9m/s | 0°C | 0% | 0hPa | 0V | 00:00:00 | 00:00:00 | 00:00:00 | |
| RDZ2B | 2026-09-02 11:41:26 | 41.87906 | 8.97854 | 126° | 58km/h | 8110m | 3.5m/s | 0°C | 0% | 0hPa | 0V | 00:00:00 | 00:00:00 | 00:00:00 | |
| RDZBGO | 2026-09-02 11:41:10 | 41.88082 | 8.97596 | 127° | 62km/h | 8023m | 7.2m/s | 0°C | 0% | 0hPa | 0V | 00:00:00 | 00:00:00 | 00:00:00 | |
| RDZ2B | 2026-09-02 11:41:02 | 41.88165 | 8.97491 | 135° | 69km/h | 7982m | 3.9m/s | 0°C | 0% | 0hPa | 0V | 00:00:00 | 00:00:00 | 00:00:00 | |
| RDZBGO | 2026-09-02 11:40:49 | 41.88273 | 8.97309 | 126° | 37km/h | 7918m | 5.3m/s | 0°C | 0% | 0hPa | 0V | 00:00:00 | 00:00:00 | 00:00:00 | |
| RDZ2B | 2026-09-02 11:40:40 | 41.88340 | 8.97181 | 139° | 47km/h | 7877m | 3.8m/s | 0°C | 0% | 0hPa | 0V | 00:00:00 | 00:00:00 | 00:00:00 | |
| RDZBGO | 2026-09-02 11:40:29 | 41.88400 | 8.97034 | 117° | 37km/h | 7809m | 6.0m/s | 0°C | 0% | 0hPa | 0V | 00:00:00 | 00:00:00 | 00:00:00 | |
| RDZ2B | 2026-09-02 11:40:20 | 41.88468 | 8.96890 | 114° | 68km/h | 7757m | 3.8m/s | 0°C | 0% | 0hPa | 0V | 00:00:00 | 00:00:00 | 00:00:00 | |
| RDZBGO | 2026-09-02 11:40:08 | 41.88543 | 8.96680 | 116° | 51km/h | 7686m | 5.0m/s | 0°C | 0% | 0hPa | 0V | 00:00:00 | 00:00:00 | 00:00:00 | |
| RDZ2B | 2026-09-02 11:39:59 | 41.88585 | 8.96521 | 106° | 64km/h | 7636m | 3.0m/s | 0°C | 0% | 0hPa | 0V | 00:00:00 | 00:00:00 | 00:00:00 | |
| RDZBGO | 2026-09-02 11:39:47 | 41.88654 | 8.96277 | 116° | 75km/h | 7571m | 6.8m/s | 0°C | 0% | 0hPa | 0V | 00:00:00 | 00:00:00 | 00:00:00 | |
| RDZ2B | 2026-09-02 11:39:37 | 41.88729 | 8.96090 | 120° | 73km/h | 7521m | 3.2m/s | 0°C | 0% | 0hPa | 0V | 00:00:00 | 00:00:00 | 00:00:00 | |
| RDZBGO | 2026-09-02 11:39:26 | 41.88793 | 8.95887 | 130° | 57km/h | 7469m | 6.1m/s | 0°C | 0% | 0hPa | 0V | 00:00:00 | 00:00:00 | 00:00:00 | |
| RDZBGO | 2026-09-02 11:39:05 | 41.88930 | 8.95571 | 114° | 60km/h | 7353m | 6.1m/s | 0°C | 0% | 0hPa | 0V | 00:00:00 | 00:00:00 | 00:00:00 | |
| RDZ2B | 2026-09-02 11:39:02 | 41.88950 | 8.95516 | 123° | 58km/h | 7336m | 4.8m/s | 0°C | 0% | 0hPa | 0V | 00:00:00 | 00:00:00 | 00:00:00 | |
| RDZBGO | 2026-09-02 11:38:45 | 41.89041 | 8.95273 | 102° | 42km/h | 7238m | 2.4m/s | 0°C | 0% | 0hPa | 0V | 00:00:00 | 00:00:00 | 00:00:00 | |
| RDZ2B | 2026-09-02 11:38:27 | 41.89137 | 8.95006 | 117° | 51km/h | 7140m | 4.8m/s | 0°C | 0% | 0hPa | 0V | 00:00:00 | 00:00:00 | 00:00:00 | |
| RDZBGO | 2026-09-02 11:38:25 | 41.89160 | 8.94957 | 127° | 58km/h | 7124m | 4.8m/s | 0°C | 0% | 0hPa | 0V | 00:00:00 | 00:00:00 | 00:00:00 | |
| RDZBGO | 2026-09-02 11:38:03 | 41.89263 | 8.94630 | 127° | 51km/h | 7005m | 6.6m/s | 0°C | 0% | 0hPa | 0V | 00:00:00 | 00:00:00 | 00:00:00 | |
| RDZ2B | 2026-09-02 11:37:53 | 41.89309 | 8.94437 | 115° | 64km/h | 6942m | 8.2m/s | 0°C | 0% | 0hPa | 0V | 00:00:00 | 00:00:00 | 00:00:00 | |
| RDZ2B | 2026-09-02 11:37:32 | 41.89410 | 8.94054 | 100° | 55km/h | 6830m | 4.6m/s | 0°C | 0% | 0hPa | 0V | 00:00:00 | 00:00:00 | 00:00:00 | |
| RDZ2B | 2026-09-02 11:36:49 | 41.89554 | 8.93173 | 101° | 58km/h | 6582m | 6.2m/s | 0°C | 0% | 0hPa | 0V | 00:00:00 | 00:00:00 | 00:00:00 |